<?xml version="1.0" encoding="UTF-8" standalone="no" ?>
<gpx xmlns="http://www.topografix.com/GPX/1/1" xmlns:xsi="http://www.w3.org/2001/XMLSchema-instance" xsi:schemaLocation="http://www.topografix.com/GPX/1/1 http://www.topografix.com/GPX/1/1/gpx.xsd" version="1.1" creator="VisuGPX - https://www.visugpx.com">
  <metadata>
    <name>La Printanière - Pierres Jaumâtres 2022 - 85km</name>
    <desc><![CDATA[Parcours "la Printanière" ASM 2022.]]></desc>
  </metadata>
  <trk>
    <name><![CDATA[13931495-La Printanière - Pierres Jaumâtres 2022 - 85km]]></name>
    <trkseg>
      <trkpt lat="46.36746" lon="2.57507">
        <ele>226</ele>
        <time>2022-05-02T07:57:41Z</time>
      </trkpt>
      <trkpt lat="46.36744" lon="2.57499">
        <ele>226</ele>
        <time>2022-05-02T07:57:42Z</time>
      </trkpt>
      <trkpt lat="46.36952" lon="2.57283">
        <ele>228</ele>
        <time>2022-05-02T07:58:28Z</time>
      </trkpt>
      <trkpt lat="46.36964" lon="2.57276">
        <ele>227</ele>
        <time>2022-05-02T07:58:30Z</time>
      </trkpt>
      <trkpt lat="46.36974" lon="2.57264">
        <ele>227</ele>
        <time>2022-05-02T07:58:32Z</time>
      </trkpt>
      <trkpt lat="46.36985" lon="2.5726">
        <ele>227</ele>
        <time>2022-05-02T07:58:34Z</time>
      </trkpt>
      <trkpt lat="46.36994" lon="2.57259">
        <ele>227</ele>
        <time>2022-05-02T07:58:36Z</time>
      </trkpt>
      <trkpt lat="46.37" lon="2.57253">
        <ele>227</ele>
        <time>2022-05-02T07:58:37Z</time>
      </trkpt>
      <trkpt lat="46.37007" lon="2.5723">
        <ele>227</ele>
        <time>2022-05-02T07:58:40Z</time>
      </trkpt>
      <trkpt lat="46.37023" lon="2.57213">
        <ele>227</ele>
        <time>2022-05-02T07:58:44Z</time>
      </trkpt>
      <trkpt lat="46.37031" lon="2.57199">
        <ele>227</ele>
        <time>2022-05-02T07:58:46Z</time>
      </trkpt>
      <trkpt lat="46.37165" lon="2.5706">
        <ele>225</ele>
        <time>2022-05-02T07:59:15Z</time>
      </trkpt>
      <trkpt lat="46.37196" lon="2.57027">
        <ele>226</ele>
        <time>2022-05-02T07:59:22Z</time>
      </trkpt>
      <trkpt lat="46.37368" lon="2.56846">
        <ele>224</ele>
        <time>2022-05-02T08:00:00Z</time>
      </trkpt>
      <trkpt lat="46.37531" lon="2.56679">
        <ele>220</ele>
        <time>2022-05-02T08:00:35Z</time>
      </trkpt>
      <trkpt lat="46.37637" lon="2.56563">
        <ele>214</ele>
        <time>2022-05-02T08:00:59Z</time>
      </trkpt>
      <trkpt lat="46.37697" lon="2.56486">
        <ele>209</ele>
        <time>2022-05-02T08:01:13Z</time>
      </trkpt>
      <trkpt lat="46.38281" lon="2.55697">
        <ele>206</ele>
        <time>2022-05-02T08:03:35Z</time>
      </trkpt>
      <trkpt lat="46.38294" lon="2.5568">
        <ele>206</ele>
        <time>2022-05-02T08:03:39Z</time>
      </trkpt>
      <trkpt lat="46.38494" lon="2.5541">
        <ele>206</ele>
        <time>2022-05-02T08:04:27Z</time>
      </trkpt>
      <trkpt lat="46.38477" lon="2.55381">
        <ele>207</ele>
        <time>2022-05-02T08:04:32Z</time>
      </trkpt>
      <trkpt lat="46.38452" lon="2.55358">
        <ele>207</ele>
        <time>2022-05-02T08:04:37Z</time>
      </trkpt>
      <trkpt lat="46.38438" lon="2.55341">
        <ele>207</ele>
        <time>2022-05-02T08:04:40Z</time>
      </trkpt>
      <trkpt lat="46.38432" lon="2.55331">
        <ele>208</ele>
        <time>2022-05-02T08:04:42Z</time>
      </trkpt>
      <trkpt lat="46.38426" lon="2.55313">
        <ele>208</ele>
        <time>2022-05-02T08:04:44Z</time>
      </trkpt>
      <trkpt lat="46.38381" lon="2.55014">
        <ele>213</ele>
        <time>2022-05-02T08:05:22Z</time>
      </trkpt>
      <trkpt lat="46.38375" lon="2.54981">
        <ele>214</ele>
        <time>2022-05-02T08:05:26Z</time>
      </trkpt>
      <trkpt lat="46.3837" lon="2.54961">
        <ele>214</ele>
        <time>2022-05-02T08:05:29Z</time>
      </trkpt>
      <trkpt lat="46.38362" lon="2.54945">
        <ele>214</ele>
        <time>2022-05-02T08:05:31Z</time>
      </trkpt>
      <trkpt lat="46.38344" lon="2.54913">
        <ele>215</ele>
        <time>2022-05-02T08:05:36Z</time>
      </trkpt>
      <trkpt lat="46.38313" lon="2.54867">
        <ele>215</ele>
        <time>2022-05-02T08:05:44Z</time>
      </trkpt>
      <trkpt lat="46.3815" lon="2.5465">
        <ele>221</ele>
        <time>2022-05-02T08:06:24Z</time>
      </trkpt>
      <trkpt lat="46.3809" lon="2.54563">
        <ele>215</ele>
        <time>2022-05-02T08:06:39Z</time>
      </trkpt>
      <trkpt lat="46.38096" lon="2.54544">
        <ele>216</ele>
        <time>2022-05-02T08:06:41Z</time>
      </trkpt>
      <trkpt lat="46.38113" lon="2.54481">
        <ele>219</ele>
        <time>2022-05-02T08:06:49Z</time>
      </trkpt>
      <trkpt lat="46.38127" lon="2.5444">
        <ele>221</ele>
        <time>2022-05-02T08:06:55Z</time>
      </trkpt>
      <trkpt lat="46.38129" lon="2.54422">
        <ele>221</ele>
        <time>2022-05-02T08:06:57Z</time>
      </trkpt>
      <trkpt lat="46.38128" lon="2.54402">
        <ele>221</ele>
        <time>2022-05-02T08:07:00Z</time>
      </trkpt>
      <trkpt lat="46.3812" lon="2.54326">
        <ele>222</ele>
        <time>2022-05-02T08:07:09Z</time>
      </trkpt>
      <trkpt lat="46.38136" lon="2.54313">
        <ele>222</ele>
        <time>2022-05-02T08:07:13Z</time>
      </trkpt>
      <trkpt lat="46.38183" lon="2.54292">
        <ele>223</ele>
        <time>2022-05-02T08:07:21Z</time>
      </trkpt>
      <trkpt lat="46.38197" lon="2.54276">
        <ele>224</ele>
        <time>2022-05-02T08:07:24Z</time>
      </trkpt>
      <trkpt lat="46.38237" lon="2.54188">
        <ele>225</ele>
        <time>2022-05-02T08:07:37Z</time>
      </trkpt>
      <trkpt lat="46.38254" lon="2.54156">
        <ele>226</ele>
        <time>2022-05-02T08:07:42Z</time>
      </trkpt>
      <trkpt lat="46.38408" lon="2.53959">
        <ele>222</ele>
        <time>2022-05-02T08:08:19Z</time>
      </trkpt>
      <trkpt lat="46.38421" lon="2.53947">
        <ele>221</ele>
        <time>2022-05-02T08:08:22Z</time>
      </trkpt>
      <trkpt lat="46.38438" lon="2.53955">
        <ele>220</ele>
        <time>2022-05-02T08:08:25Z</time>
      </trkpt>
      <trkpt lat="46.38459" lon="2.53975">
        <ele>220</ele>
        <time>2022-05-02T08:08:29Z</time>
      </trkpt>
      <trkpt lat="46.38485" lon="2.53989">
        <ele>218</ele>
        <time>2022-05-02T08:08:34Z</time>
      </trkpt>
      <trkpt lat="46.38519" lon="2.53998">
        <ele>216</ele>
        <time>2022-05-02T08:08:40Z</time>
      </trkpt>
      <trkpt lat="46.38667" lon="2.54011">
        <ele>208</ele>
        <time>2022-05-02T08:09:07Z</time>
      </trkpt>
      <trkpt lat="46.38679" lon="2.54008">
        <ele>208</ele>
        <time>2022-05-02T08:09:09Z</time>
      </trkpt>
      <trkpt lat="46.38685" lon="2.53999">
        <ele>208</ele>
        <time>2022-05-02T08:09:10Z</time>
      </trkpt>
      <trkpt lat="46.38686" lon="2.53985">
        <ele>208</ele>
        <time>2022-05-02T08:09:12Z</time>
      </trkpt>
      <trkpt lat="46.38683" lon="2.53964">
        <ele>208</ele>
        <time>2022-05-02T08:09:15Z</time>
      </trkpt>
      <trkpt lat="46.38629" lon="2.53731">
        <ele>207</ele>
        <time>2022-05-02T08:09:45Z</time>
      </trkpt>
      <trkpt lat="46.3862" lon="2.537">
        <ele>208</ele>
        <time>2022-05-02T08:09:49Z</time>
      </trkpt>
      <trkpt lat="46.3861" lon="2.53682">
        <ele>208</ele>
        <time>2022-05-02T08:09:52Z</time>
      </trkpt>
      <trkpt lat="46.38559" lon="2.53619">
        <ele>208</ele>
        <time>2022-05-02T08:10:04Z</time>
      </trkpt>
      <trkpt lat="46.38551" lon="2.53604">
        <ele>208</ele>
        <time>2022-05-02T08:10:06Z</time>
      </trkpt>
      <trkpt lat="46.3855" lon="2.53586">
        <ele>208</ele>
        <time>2022-05-02T08:10:08Z</time>
      </trkpt>
      <trkpt lat="46.38555" lon="2.53569">
        <ele>208</ele>
        <time>2022-05-02T08:10:11Z</time>
      </trkpt>
      <trkpt lat="46.38664" lon="2.5338">
        <ele>210</ele>
        <time>2022-05-02T08:10:41Z</time>
      </trkpt>
      <trkpt lat="46.38667" lon="2.53364">
        <ele>210</ele>
        <time>2022-05-02T08:10:43Z</time>
      </trkpt>
      <trkpt lat="46.38668" lon="2.53351">
        <ele>210</ele>
        <time>2022-05-02T08:10:45Z</time>
      </trkpt>
      <trkpt lat="46.38661" lon="2.53309">
        <ele>210</ele>
        <time>2022-05-02T08:10:50Z</time>
      </trkpt>
      <trkpt lat="46.38647" lon="2.53249">
        <ele>209</ele>
        <time>2022-05-02T08:10:58Z</time>
      </trkpt>
      <trkpt lat="46.38633" lon="2.53204">
        <ele>208</ele>
        <time>2022-05-02T08:11:04Z</time>
      </trkpt>
      <trkpt lat="46.38613" lon="2.5316">
        <ele>208</ele>
        <time>2022-05-02T08:11:10Z</time>
      </trkpt>
      <trkpt lat="46.3858" lon="2.53109">
        <ele>209</ele>
        <time>2022-05-02T08:11:19Z</time>
      </trkpt>
      <trkpt lat="46.38565" lon="2.53078">
        <ele>209</ele>
        <time>2022-05-02T08:11:23Z</time>
      </trkpt>
      <trkpt lat="46.38553" lon="2.53026">
        <ele>209</ele>
        <time>2022-05-02T08:11:30Z</time>
      </trkpt>
      <trkpt lat="46.3855" lon="2.52876">
        <ele>209</ele>
        <time>2022-05-02T08:11:49Z</time>
      </trkpt>
      <trkpt lat="46.38546" lon="2.52794">
        <ele>210</ele>
        <time>2022-05-02T08:11:59Z</time>
      </trkpt>
      <trkpt lat="46.38517" lon="2.52524">
        <ele>212</ele>
        <time>2022-05-02T08:12:32Z</time>
      </trkpt>
      <trkpt lat="46.38509" lon="2.52471">
        <ele>212</ele>
        <time>2022-05-02T08:12:39Z</time>
      </trkpt>
      <trkpt lat="46.385" lon="2.52443">
        <ele>212</ele>
        <time>2022-05-02T08:12:43Z</time>
      </trkpt>
      <trkpt lat="46.38447" lon="2.52339">
        <ele>213</ele>
        <time>2022-05-02T08:12:58Z</time>
      </trkpt>
      <trkpt lat="46.38438" lon="2.5231">
        <ele>214</ele>
        <time>2022-05-02T08:13:02Z</time>
      </trkpt>
      <trkpt lat="46.38415" lon="2.522">
        <ele>213</ele>
        <time>2022-05-02T08:13:16Z</time>
      </trkpt>
      <trkpt lat="46.38408" lon="2.52152">
        <ele>213</ele>
        <time>2022-05-02T08:13:22Z</time>
      </trkpt>
      <trkpt lat="46.38414" lon="2.52145">
        <ele>213</ele>
        <time>2022-05-02T08:13:24Z</time>
      </trkpt>
      <trkpt lat="46.38414" lon="2.52138">
        <ele>213</ele>
        <time>2022-05-02T08:13:25Z</time>
      </trkpt>
      <trkpt lat="46.38418" lon="2.52135">
        <ele>213</ele>
        <time>2022-05-02T08:13:26Z</time>
      </trkpt>
      <trkpt lat="46.38434" lon="2.52133">
        <ele>212</ele>
        <time>2022-05-02T08:13:28Z</time>
      </trkpt>
      <trkpt lat="46.38463" lon="2.52143">
        <ele>212</ele>
        <time>2022-05-02T08:13:34Z</time>
      </trkpt>
      <trkpt lat="46.38491" lon="2.52157">
        <ele>211</ele>
        <time>2022-05-02T08:13:39Z</time>
      </trkpt>
      <trkpt lat="46.38502" lon="2.52162">
        <ele>210</ele>
        <time>2022-05-02T08:13:41Z</time>
      </trkpt>
      <trkpt lat="46.38522" lon="2.52172">
        <ele>211</ele>
        <time>2022-05-02T08:13:45Z</time>
      </trkpt>
      <trkpt lat="46.38521" lon="2.52154">
        <ele>211</ele>
        <time>2022-05-02T08:13:47Z</time>
      </trkpt>
      <trkpt lat="46.38512" lon="2.52131">
        <ele>211</ele>
        <time>2022-05-02T08:13:50Z</time>
      </trkpt>
      <trkpt lat="46.38485" lon="2.52065">
        <ele>212</ele>
        <time>2022-05-02T08:14:00Z</time>
      </trkpt>
      <trkpt lat="46.38432" lon="2.5196">
        <ele>215</ele>
        <time>2022-05-02T08:14:16Z</time>
      </trkpt>
      <trkpt lat="46.38398" lon="2.51875">
        <ele>218</ele>
        <time>2022-05-02T08:14:28Z</time>
      </trkpt>
      <trkpt lat="46.38387" lon="2.51837">
        <ele>219</ele>
        <time>2022-05-02T08:14:33Z</time>
      </trkpt>
      <trkpt lat="46.38382" lon="2.51804">
        <ele>220</ele>
        <time>2022-05-02T08:14:37Z</time>
      </trkpt>
      <trkpt lat="46.38375" lon="2.51729">
        <ele>221</ele>
        <time>2022-05-02T08:14:46Z</time>
      </trkpt>
      <trkpt lat="46.3837" lon="2.51696">
        <ele>222</ele>
        <time>2022-05-02T08:14:50Z</time>
      </trkpt>
      <trkpt lat="46.38363" lon="2.51672">
        <ele>223</ele>
        <time>2022-05-02T08:14:54Z</time>
      </trkpt>
      <trkpt lat="46.38302" lon="2.51573">
        <ele>227</ele>
        <time>2022-05-02T08:15:10Z</time>
      </trkpt>
      <trkpt lat="46.38293" lon="2.51553">
        <ele>228</ele>
        <time>2022-05-02T08:15:13Z</time>
      </trkpt>
      <trkpt lat="46.38289" lon="2.51535">
        <ele>229</ele>
        <time>2022-05-02T08:15:15Z</time>
      </trkpt>
      <trkpt lat="46.38287" lon="2.51517">
        <ele>230</ele>
        <time>2022-05-02T08:15:17Z</time>
      </trkpt>
      <trkpt lat="46.38285" lon="2.51326">
        <ele>232</ele>
        <time>2022-05-02T08:15:41Z</time>
      </trkpt>
      <trkpt lat="46.38284" lon="2.51293">
        <ele>233</ele>
        <time>2022-05-02T08:15:45Z</time>
      </trkpt>
      <trkpt lat="46.38268" lon="2.5123">
        <ele>234</ele>
        <time>2022-05-02T08:15:53Z</time>
      </trkpt>
      <trkpt lat="46.38249" lon="2.51166">
        <ele>237</ele>
        <time>2022-05-02T08:16:02Z</time>
      </trkpt>
      <trkpt lat="46.38248" lon="2.51143">
        <ele>238</ele>
        <time>2022-05-02T08:16:04Z</time>
      </trkpt>
      <trkpt lat="46.38252" lon="2.51119">
        <ele>240</ele>
        <time>2022-05-02T08:16:07Z</time>
      </trkpt>
      <trkpt lat="46.38342" lon="2.50892">
        <ele>251</ele>
        <time>2022-05-02T08:16:40Z</time>
      </trkpt>
      <trkpt lat="46.38351" lon="2.50883">
        <ele>251</ele>
        <time>2022-05-02T08:16:42Z</time>
      </trkpt>
      <trkpt lat="46.3837" lon="2.50875">
        <ele>252</ele>
        <time>2022-05-02T08:16:45Z</time>
      </trkpt>
      <trkpt lat="46.38462" lon="2.5086">
        <ele>254</ele>
        <time>2022-05-02T08:17:02Z</time>
      </trkpt>
      <trkpt lat="46.38483" lon="2.50863">
        <ele>254</ele>
        <time>2022-05-02T08:17:05Z</time>
      </trkpt>
      <trkpt lat="46.38539" lon="2.50883">
        <ele>254</ele>
        <time>2022-05-02T08:17:16Z</time>
      </trkpt>
      <trkpt lat="46.3856" lon="2.50887">
        <ele>253</ele>
        <time>2022-05-02T08:17:19Z</time>
      </trkpt>
      <trkpt lat="46.38584" lon="2.50883">
        <ele>253</ele>
        <time>2022-05-02T08:17:24Z</time>
      </trkpt>
      <trkpt lat="46.38617" lon="2.50869">
        <ele>255</ele>
        <time>2022-05-02T08:17:30Z</time>
      </trkpt>
      <trkpt lat="46.38629" lon="2.50855">
        <ele>255</ele>
        <time>2022-05-02T08:17:32Z</time>
      </trkpt>
      <trkpt lat="46.38639" lon="2.50833">
        <ele>256</ele>
        <time>2022-05-02T08:17:36Z</time>
      </trkpt>
      <trkpt lat="46.38645" lon="2.508">
        <ele>257</ele>
        <time>2022-05-02T08:17:40Z</time>
      </trkpt>
      <trkpt lat="46.3865" lon="2.50737">
        <ele>259</ele>
        <time>2022-05-02T08:17:48Z</time>
      </trkpt>
      <trkpt lat="46.38656" lon="2.50717">
        <ele>259</ele>
        <time>2022-05-02T08:17:50Z</time>
      </trkpt>
      <trkpt lat="46.38666" lon="2.50708">
        <ele>259</ele>
        <time>2022-05-02T08:17:52Z</time>
      </trkpt>
      <trkpt lat="46.38683" lon="2.50701">
        <ele>260</ele>
        <time>2022-05-02T08:17:56Z</time>
      </trkpt>
      <trkpt lat="46.38698" lon="2.50691">
        <ele>261</ele>
        <time>2022-05-02T08:17:59Z</time>
      </trkpt>
      <trkpt lat="46.3871" lon="2.50677">
        <ele>262</ele>
        <time>2022-05-02T08:18:01Z</time>
      </trkpt>
      <trkpt lat="46.38716" lon="2.50659">
        <ele>262</ele>
        <time>2022-05-02T08:18:04Z</time>
      </trkpt>
      <trkpt lat="46.38719" lon="2.50636">
        <ele>262</ele>
        <time>2022-05-02T08:18:07Z</time>
      </trkpt>
      <trkpt lat="46.38716" lon="2.5061">
        <ele>262</ele>
        <time>2022-05-02T08:18:10Z</time>
      </trkpt>
      <trkpt lat="46.38695" lon="2.50543">
        <ele>263</ele>
        <time>2022-05-02T08:18:19Z</time>
      </trkpt>
      <trkpt lat="46.3867" lon="2.50403">
        <ele>266</ele>
        <time>2022-05-02T08:18:37Z</time>
      </trkpt>
      <trkpt lat="46.38649" lon="2.50295">
        <ele>269</ele>
        <time>2022-05-02T08:18:50Z</time>
      </trkpt>
      <trkpt lat="46.38632" lon="2.50178">
        <ele>273</ele>
        <time>2022-05-02T08:19:05Z</time>
      </trkpt>
      <trkpt lat="46.38629" lon="2.50149">
        <ele>274</ele>
        <time>2022-05-02T08:19:09Z</time>
      </trkpt>
      <trkpt lat="46.38639" lon="2.49944">
        <ele>280</ele>
        <time>2022-05-02T08:19:34Z</time>
      </trkpt>
      <trkpt lat="46.38671" lon="2.4978">
        <ele>286</ele>
        <time>2022-05-02T08:19:55Z</time>
      </trkpt>
      <trkpt lat="46.38699" lon="2.49511">
        <ele>291</ele>
        <time>2022-05-02T08:20:28Z</time>
      </trkpt>
      <trkpt lat="46.38717" lon="2.49362">
        <ele>292</ele>
        <time>2022-05-02T08:20:47Z</time>
      </trkpt>
      <trkpt lat="46.38736" lon="2.49267">
        <ele>294</ele>
        <time>2022-05-02T08:20:59Z</time>
      </trkpt>
      <trkpt lat="46.38748" lon="2.49116">
        <ele>296</ele>
        <time>2022-05-02T08:21:18Z</time>
      </trkpt>
      <trkpt lat="46.38749" lon="2.49025">
        <ele>299</ele>
        <time>2022-05-02T08:21:29Z</time>
      </trkpt>
      <trkpt lat="46.38767" lon="2.48899">
        <ele>303</ele>
        <time>2022-05-02T08:21:45Z</time>
      </trkpt>
      <trkpt lat="46.38767" lon="2.48863">
        <ele>304</ele>
        <time>2022-05-02T08:21:49Z</time>
      </trkpt>
      <trkpt lat="46.38747" lon="2.48681">
        <ele>309</ele>
        <time>2022-05-02T08:22:12Z</time>
      </trkpt>
      <trkpt lat="46.38546" lon="2.48591">
        <ele>307</ele>
        <time>2022-05-02T08:22:49Z</time>
      </trkpt>
      <trkpt lat="46.38512" lon="2.48572">
        <ele>306</ele>
        <time>2022-05-02T08:22:55Z</time>
      </trkpt>
      <trkpt lat="46.38492" lon="2.48554">
        <ele>306</ele>
        <time>2022-05-02T08:23:00Z</time>
      </trkpt>
      <trkpt lat="46.38405" lon="2.48437">
        <ele>303</ele>
        <time>2022-05-02T08:23:21Z</time>
      </trkpt>
      <trkpt lat="46.38372" lon="2.48386">
        <ele>302</ele>
        <time>2022-05-02T08:23:29Z</time>
      </trkpt>
      <trkpt lat="46.38364" lon="2.48367">
        <ele>301</ele>
        <time>2022-05-02T08:23:32Z</time>
      </trkpt>
      <trkpt lat="46.38361" lon="2.48355">
        <ele>301</ele>
        <time>2022-05-02T08:23:34Z</time>
      </trkpt>
      <trkpt lat="46.38357" lon="2.48332">
        <ele>300</ele>
        <time>2022-05-02T08:23:37Z</time>
      </trkpt>
      <trkpt lat="46.38353" lon="2.4828">
        <ele>299</ele>
        <time>2022-05-02T08:23:43Z</time>
      </trkpt>
      <trkpt lat="46.38347" lon="2.48255">
        <ele>298</ele>
        <time>2022-05-02T08:23:46Z</time>
      </trkpt>
      <trkpt lat="46.38338" lon="2.48232">
        <ele>297</ele>
        <time>2022-05-02T08:23:49Z</time>
      </trkpt>
      <trkpt lat="46.38297" lon="2.48162">
        <ele>294</ele>
        <time>2022-05-02T08:24:01Z</time>
      </trkpt>
      <trkpt lat="46.38283" lon="2.48149">
        <ele>293</ele>
        <time>2022-05-02T08:24:04Z</time>
      </trkpt>
      <trkpt lat="46.3827" lon="2.48145">
        <ele>292</ele>
        <time>2022-05-02T08:24:06Z</time>
      </trkpt>
      <trkpt lat="46.38251" lon="2.48145">
        <ele>289</ele>
        <time>2022-05-02T08:24:09Z</time>
      </trkpt>
      <trkpt lat="46.38187" lon="2.48159">
        <ele>286</ele>
        <time>2022-05-02T08:24:21Z</time>
      </trkpt>
      <trkpt lat="46.38171" lon="2.48156">
        <ele>286</ele>
        <time>2022-05-02T08:24:24Z</time>
      </trkpt>
      <trkpt lat="46.38156" lon="2.48147">
        <ele>285</ele>
        <time>2022-05-02T08:24:27Z</time>
      </trkpt>
      <trkpt lat="46.38102" lon="2.48091">
        <ele>283</ele>
        <time>2022-05-02T08:24:39Z</time>
      </trkpt>
      <trkpt lat="46.38084" lon="2.48079">
        <ele>282</ele>
        <time>2022-05-02T08:24:42Z</time>
      </trkpt>
      <trkpt lat="46.38067" lon="2.48076">
        <ele>282</ele>
        <time>2022-05-02T08:24:45Z</time>
      </trkpt>
      <trkpt lat="46.37995" lon="2.48072">
        <ele>279</ele>
        <time>2022-05-02T08:24:58Z</time>
      </trkpt>
      <trkpt lat="46.37979" lon="2.48066">
        <ele>279</ele>
        <time>2022-05-02T08:25:01Z</time>
      </trkpt>
      <trkpt lat="46.37966" lon="2.48055">
        <ele>279</ele>
        <time>2022-05-02T08:25:04Z</time>
      </trkpt>
      <trkpt lat="46.37954" lon="2.48039">
        <ele>280</ele>
        <time>2022-05-02T08:25:06Z</time>
      </trkpt>
      <trkpt lat="46.37944" lon="2.48017">
        <ele>281</ele>
        <time>2022-05-02T08:25:10Z</time>
      </trkpt>
      <trkpt lat="46.37938" lon="2.47991">
        <ele>281</ele>
        <time>2022-05-02T08:25:13Z</time>
      </trkpt>
      <trkpt lat="46.37929" lon="2.47966">
        <ele>282</ele>
        <time>2022-05-02T08:25:17Z</time>
      </trkpt>
      <trkpt lat="46.37919" lon="2.47952">
        <ele>282</ele>
        <time>2022-05-02T08:25:19Z</time>
      </trkpt>
      <trkpt lat="46.37924" lon="2.47948">
        <ele>282</ele>
        <time>2022-05-02T08:25:20Z</time>
      </trkpt>
      <trkpt lat="46.3794" lon="2.47949">
        <ele>282</ele>
        <time>2022-05-02T08:25:23Z</time>
      </trkpt>
      <trkpt lat="46.37989" lon="2.47962">
        <ele>283</ele>
        <time>2022-05-02T08:25:32Z</time>
      </trkpt>
      <trkpt lat="46.38013" lon="2.47962">
        <ele>284</ele>
        <time>2022-05-02T08:25:36Z</time>
      </trkpt>
      <trkpt lat="46.38031" lon="2.47958">
        <ele>284</ele>
        <time>2022-05-02T08:25:39Z</time>
      </trkpt>
      <trkpt lat="46.38048" lon="2.47949">
        <ele>285</ele>
        <time>2022-05-02T08:25:42Z</time>
      </trkpt>
      <trkpt lat="46.38065" lon="2.47936">
        <ele>286</ele>
        <time>2022-05-02T08:25:46Z</time>
      </trkpt>
      <trkpt lat="46.38442" lon="2.47535">
        <ele>309</ele>
        <time>2022-05-02T08:27:09Z</time>
      </trkpt>
      <trkpt lat="46.38463" lon="2.47518">
        <ele>311</ele>
        <time>2022-05-02T08:27:13Z</time>
      </trkpt>
      <trkpt lat="46.38477" lon="2.47512">
        <ele>312</ele>
        <time>2022-05-02T08:27:16Z</time>
      </trkpt>
      <trkpt lat="46.38493" lon="2.4751">
        <ele>312</ele>
        <time>2022-05-02T08:27:19Z</time>
      </trkpt>
      <trkpt lat="46.38522" lon="2.47515">
        <ele>313</ele>
        <time>2022-05-02T08:27:24Z</time>
      </trkpt>
      <trkpt lat="46.38538" lon="2.47513">
        <ele>314</ele>
        <time>2022-05-02T08:27:27Z</time>
      </trkpt>
      <trkpt lat="46.38554" lon="2.47504">
        <ele>315</ele>
        <time>2022-05-02T08:27:30Z</time>
      </trkpt>
      <trkpt lat="46.38571" lon="2.4749">
        <ele>316</ele>
        <time>2022-05-02T08:27:33Z</time>
      </trkpt>
      <trkpt lat="46.38584" lon="2.47472">
        <ele>317</ele>
        <time>2022-05-02T08:27:37Z</time>
      </trkpt>
      <trkpt lat="46.38595" lon="2.47452">
        <ele>319</ele>
        <time>2022-05-02T08:27:40Z</time>
      </trkpt>
      <trkpt lat="46.38605" lon="2.47426">
        <ele>320</ele>
        <time>2022-05-02T08:27:43Z</time>
      </trkpt>
      <trkpt lat="46.38611" lon="2.47398">
        <ele>321</ele>
        <time>2022-05-02T08:27:47Z</time>
      </trkpt>
      <trkpt lat="46.38693" lon="2.46592">
        <ele>351</ele>
        <time>2022-05-02T08:29:27Z</time>
      </trkpt>
      <trkpt lat="46.38698" lon="2.46565">
        <ele>352</ele>
        <time>2022-05-02T08:29:30Z</time>
      </trkpt>
      <trkpt lat="46.38703" lon="2.46542">
        <ele>353</ele>
        <time>2022-05-02T08:29:33Z</time>
      </trkpt>
      <trkpt lat="46.3871" lon="2.46522">
        <ele>354</ele>
        <time>2022-05-02T08:29:36Z</time>
      </trkpt>
      <trkpt lat="46.3872" lon="2.46501">
        <ele>355</ele>
        <time>2022-05-02T08:29:39Z</time>
      </trkpt>
      <trkpt lat="46.39787" lon="2.44825">
        <ele>347</ele>
        <time>2022-05-02T08:34:19Z</time>
      </trkpt>
      <trkpt lat="46.39806" lon="2.44801">
        <ele>346</ele>
        <time>2022-05-02T08:34:24Z</time>
      </trkpt>
      <trkpt lat="46.39824" lon="2.44784">
        <ele>345</ele>
        <time>2022-05-02T08:34:27Z</time>
      </trkpt>
      <trkpt lat="46.39843" lon="2.4477">
        <ele>345</ele>
        <time>2022-05-02T08:34:31Z</time>
      </trkpt>
      <trkpt lat="46.39864" lon="2.44758">
        <ele>344</ele>
        <time>2022-05-02T08:34:35Z</time>
      </trkpt>
      <trkpt lat="46.3989" lon="2.44747">
        <ele>342</ele>
        <time>2022-05-02T08:34:40Z</time>
      </trkpt>
      <trkpt lat="46.39973" lon="2.4473">
        <ele>339</ele>
        <time>2022-05-02T08:34:55Z</time>
      </trkpt>
      <trkpt lat="46.40016" lon="2.44719">
        <ele>337</ele>
        <time>2022-05-02T08:35:03Z</time>
      </trkpt>
      <trkpt lat="46.40041" lon="2.44704">
        <ele>335</ele>
        <time>2022-05-02T08:35:08Z</time>
      </trkpt>
      <trkpt lat="46.40052" lon="2.44693">
        <ele>335</ele>
        <time>2022-05-02T08:35:10Z</time>
      </trkpt>
      <trkpt lat="46.40095" lon="2.44627">
        <ele>333</ele>
        <time>2022-05-02T08:35:21Z</time>
      </trkpt>
      <trkpt lat="46.40104" lon="2.44607">
        <ele>333</ele>
        <time>2022-05-02T08:35:24Z</time>
      </trkpt>
      <trkpt lat="46.40109" lon="2.44588">
        <ele>333</ele>
        <time>2022-05-02T08:35:27Z</time>
      </trkpt>
      <trkpt lat="46.40111" lon="2.44568">
        <ele>332</ele>
        <time>2022-05-02T08:35:29Z</time>
      </trkpt>
      <trkpt lat="46.40106" lon="2.44456">
        <ele>327</ele>
        <time>2022-05-02T08:35:43Z</time>
      </trkpt>
      <trkpt lat="46.40103" lon="2.44418">
        <ele>327</ele>
        <time>2022-05-02T08:35:47Z</time>
      </trkpt>
      <trkpt lat="46.40079" lon="2.44311">
        <ele>325</ele>
        <time>2022-05-02T08:36:01Z</time>
      </trkpt>
      <trkpt lat="46.40076" lon="2.44283">
        <ele>324</ele>
        <time>2022-05-02T08:36:05Z</time>
      </trkpt>
      <trkpt lat="46.40075" lon="2.44244">
        <ele>322</ele>
        <time>2022-05-02T08:36:10Z</time>
      </trkpt>
      <trkpt lat="46.40086" lon="2.44049">
        <ele>320</ele>
        <time>2022-05-02T08:36:34Z</time>
      </trkpt>
      <trkpt lat="46.40095" lon="2.44031">
        <ele>320</ele>
        <time>2022-05-02T08:36:36Z</time>
      </trkpt>
      <trkpt lat="46.40109" lon="2.4402">
        <ele>320</ele>
        <time>2022-05-02T08:36:39Z</time>
      </trkpt>
      <trkpt lat="46.40125" lon="2.44015">
        <ele>320</ele>
        <time>2022-05-02T08:36:42Z</time>
      </trkpt>
      <trkpt lat="46.40142" lon="2.44016">
        <ele>321</ele>
        <time>2022-05-02T08:36:45Z</time>
      </trkpt>
      <trkpt lat="46.40157" lon="2.44036">
        <ele>320</ele>
        <time>2022-05-02T08:36:49Z</time>
      </trkpt>
      <trkpt lat="46.40322" lon="2.44332">
        <ele>329</ele>
        <time>2022-05-02T08:37:35Z</time>
      </trkpt>
      <trkpt lat="46.40345" lon="2.44361">
        <ele>331</ele>
        <time>2022-05-02T08:37:41Z</time>
      </trkpt>
      <trkpt lat="46.40369" lon="2.44379">
        <ele>332</ele>
        <time>2022-05-02T08:37:46Z</time>
      </trkpt>
      <trkpt lat="46.40393" lon="2.44387">
        <ele>333</ele>
        <time>2022-05-02T08:37:50Z</time>
      </trkpt>
      <trkpt lat="46.4041" lon="2.4439">
        <ele>334</ele>
        <time>2022-05-02T08:37:53Z</time>
      </trkpt>
      <trkpt lat="46.40431" lon="2.44389">
        <ele>335</ele>
        <time>2022-05-02T08:37:57Z</time>
      </trkpt>
      <trkpt lat="46.4045" lon="2.44383">
        <ele>336</ele>
        <time>2022-05-02T08:38:00Z</time>
      </trkpt>
      <trkpt lat="46.40471" lon="2.44373">
        <ele>337</ele>
        <time>2022-05-02T08:38:04Z</time>
      </trkpt>
      <trkpt lat="46.40487" lon="2.4436">
        <ele>338</ele>
        <time>2022-05-02T08:38:07Z</time>
      </trkpt>
      <trkpt lat="46.405" lon="2.44347">
        <ele>339</ele>
        <time>2022-05-02T08:38:10Z</time>
      </trkpt>
      <trkpt lat="46.40514" lon="2.44327">
        <ele>339</ele>
        <time>2022-05-02T08:38:14Z</time>
      </trkpt>
      <trkpt lat="46.40527" lon="2.44302">
        <ele>340</ele>
        <time>2022-05-02T08:38:18Z</time>
      </trkpt>
      <trkpt lat="46.40703" lon="2.43917">
        <ele>345</ele>
        <time>2022-05-02T08:39:14Z</time>
      </trkpt>
      <trkpt lat="46.41794" lon="2.41514">
        <ele>401</ele>
        <time>2022-05-02T08:45:07Z</time>
      </trkpt>
      <trkpt lat="46.41892" lon="2.41303">
        <ele>409</ele>
        <time>2022-05-02T08:45:38Z</time>
      </trkpt>
      <trkpt lat="46.41884" lon="2.41295">
        <ele>409</ele>
        <time>2022-05-02T08:45:40Z</time>
      </trkpt>
      <trkpt lat="46.4179" lon="2.41261">
        <ele>403</ele>
        <time>2022-05-02T08:45:57Z</time>
      </trkpt>
      <trkpt lat="46.41779" lon="2.41254">
        <ele>402</ele>
        <time>2022-05-02T08:46:00Z</time>
      </trkpt>
      <trkpt lat="46.41766" lon="2.41244">
        <ele>401</ele>
        <time>2022-05-02T08:46:02Z</time>
      </trkpt>
      <trkpt lat="46.41756" lon="2.41227">
        <ele>400</ele>
        <time>2022-05-02T08:46:05Z</time>
      </trkpt>
      <trkpt lat="46.41747" lon="2.41204">
        <ele>399</ele>
        <time>2022-05-02T08:46:08Z</time>
      </trkpt>
      <trkpt lat="46.41615" lon="2.40325">
        <ele>396</ele>
        <time>2022-05-02T08:47:58Z</time>
      </trkpt>
      <trkpt lat="46.41606" lon="2.40287">
        <ele>396</ele>
        <time>2022-05-02T08:48:03Z</time>
      </trkpt>
      <trkpt lat="46.41595" lon="2.40254">
        <ele>396</ele>
        <time>2022-05-02T08:48:08Z</time>
      </trkpt>
      <trkpt lat="46.41582" lon="2.40226">
        <ele>396</ele>
        <time>2022-05-02T08:48:12Z</time>
      </trkpt>
      <trkpt lat="46.41533" lon="2.4015">
        <ele>396</ele>
        <time>2022-05-02T08:48:25Z</time>
      </trkpt>
      <trkpt lat="46.41503" lon="2.40109">
        <ele>395</ele>
        <time>2022-05-02T08:48:32Z</time>
      </trkpt>
      <trkpt lat="46.41414" lon="2.39998">
        <ele>391</ele>
        <time>2022-05-02T08:48:53Z</time>
      </trkpt>
      <trkpt lat="46.41397" lon="2.39973">
        <ele>389</ele>
        <time>2022-05-02T08:48:57Z</time>
      </trkpt>
      <trkpt lat="46.41384" lon="2.39946">
        <ele>388</ele>
        <time>2022-05-02T08:49:01Z</time>
      </trkpt>
      <trkpt lat="46.41311" lon="2.39738">
        <ele>384</ele>
        <time>2022-05-02T08:49:30Z</time>
      </trkpt>
      <trkpt lat="46.41305" lon="2.39727">
        <ele>384</ele>
        <time>2022-05-02T08:49:32Z</time>
      </trkpt>
      <trkpt lat="46.413" lon="2.39721">
        <ele>383</ele>
        <time>2022-05-02T08:49:33Z</time>
      </trkpt>
      <trkpt lat="46.41279" lon="2.39714">
        <ele>382</ele>
        <time>2022-05-02T08:49:37Z</time>
      </trkpt>
      <trkpt lat="46.41161" lon="2.39709">
        <ele>382</ele>
        <time>2022-05-02T08:49:58Z</time>
      </trkpt>
      <trkpt lat="46.41145" lon="2.39707">
        <ele>383</ele>
        <time>2022-05-02T08:50:01Z</time>
      </trkpt>
      <trkpt lat="46.41136" lon="2.39703">
        <ele>383</ele>
        <time>2022-05-02T08:50:02Z</time>
      </trkpt>
      <trkpt lat="46.41123" lon="2.3969">
        <ele>383</ele>
        <time>2022-05-02T08:50:05Z</time>
      </trkpt>
      <trkpt lat="46.4111" lon="2.39671">
        <ele>384</ele>
        <time>2022-05-02T08:50:08Z</time>
      </trkpt>
      <trkpt lat="46.41036" lon="2.3955">
        <ele>386</ele>
        <time>2022-05-02T08:50:28Z</time>
      </trkpt>
      <trkpt lat="46.41025" lon="2.39537">
        <ele>387</ele>
        <time>2022-05-02T08:50:31Z</time>
      </trkpt>
      <trkpt lat="46.41016" lon="2.39531">
        <ele>387</ele>
        <time>2022-05-02T08:50:32Z</time>
      </trkpt>
      <trkpt lat="46.41016" lon="2.3952">
        <ele>387</ele>
        <time>2022-05-02T08:50:34Z</time>
      </trkpt>
      <trkpt lat="46.41002" lon="2.39494">
        <ele>388</ele>
        <time>2022-05-02T08:50:38Z</time>
      </trkpt>
      <trkpt lat="46.40952" lon="2.39414">
        <ele>387</ele>
        <time>2022-05-02T08:50:51Z</time>
      </trkpt>
      <trkpt lat="46.40938" lon="2.39384">
        <ele>388</ele>
        <time>2022-05-02T08:50:56Z</time>
      </trkpt>
      <trkpt lat="46.40929" lon="2.39358">
        <ele>388</ele>
        <time>2022-05-02T08:50:59Z</time>
      </trkpt>
      <trkpt lat="46.40733" lon="2.38582">
        <ele>409</ele>
        <time>2022-05-02T08:52:41Z</time>
      </trkpt>
      <trkpt lat="46.40723" lon="2.3856">
        <ele>409</ele>
        <time>2022-05-02T08:52:44Z</time>
      </trkpt>
      <trkpt lat="46.40645" lon="2.38414">
        <ele>414</ele>
        <time>2022-05-02T08:53:06Z</time>
      </trkpt>
      <trkpt lat="46.40636" lon="2.38391">
        <ele>414</ele>
        <time>2022-05-02T08:53:10Z</time>
      </trkpt>
      <trkpt lat="46.40625" lon="2.3835">
        <ele>413</ele>
        <time>2022-05-02T08:53:15Z</time>
      </trkpt>
      <trkpt lat="46.40618" lon="2.38317">
        <ele>413</ele>
        <time>2022-05-02T08:53:19Z</time>
      </trkpt>
      <trkpt lat="46.40566" lon="2.38021">
        <ele>416</ele>
        <time>2022-05-02T08:53:57Z</time>
      </trkpt>
      <trkpt lat="46.40555" lon="2.37938">
        <ele>416</ele>
        <time>2022-05-02T08:54:07Z</time>
      </trkpt>
      <trkpt lat="46.40556" lon="2.37842">
        <ele>415</ele>
        <time>2022-05-02T08:54:19Z</time>
      </trkpt>
      <trkpt lat="46.4057" lon="2.37693">
        <ele>416</ele>
        <time>2022-05-02T08:54:37Z</time>
      </trkpt>
      <trkpt lat="46.40576" lon="2.37466">
        <ele>419</ele>
        <time>2022-05-02T08:55:05Z</time>
      </trkpt>
      <trkpt lat="46.40575" lon="2.37433">
        <ele>420</ele>
        <time>2022-05-02T08:55:09Z</time>
      </trkpt>
      <trkpt lat="46.40561" lon="2.37322">
        <ele>419</ele>
        <time>2022-05-02T08:55:23Z</time>
      </trkpt>
      <trkpt lat="46.40551" lon="2.37263">
        <ele>420</ele>
        <time>2022-05-02T08:55:31Z</time>
      </trkpt>
      <trkpt lat="46.40547" lon="2.37245">
        <ele>421</ele>
        <time>2022-05-02T08:55:33Z</time>
      </trkpt>
      <trkpt lat="46.40533" lon="2.37217">
        <ele>421</ele>
        <time>2022-05-02T08:55:37Z</time>
      </trkpt>
      <trkpt lat="46.40527" lon="2.37201">
        <ele>421</ele>
        <time>2022-05-02T08:55:39Z</time>
      </trkpt>
      <trkpt lat="46.4052" lon="2.37159">
        <ele>421</ele>
        <time>2022-05-02T08:55:45Z</time>
      </trkpt>
      <trkpt lat="46.40361" lon="2.36878">
        <ele>419</ele>
        <time>2022-05-02T08:56:29Z</time>
      </trkpt>
      <trkpt lat="46.40179" lon="2.36562">
        <ele>419</ele>
        <time>2022-05-02T08:57:20Z</time>
      </trkpt>
      <trkpt lat="46.39992" lon="2.36281">
        <ele>417</ele>
        <time>2022-05-02T08:58:08Z</time>
      </trkpt>
      <trkpt lat="46.39887" lon="2.36119">
        <ele>416</ele>
        <time>2022-05-02T08:58:35Z</time>
      </trkpt>
      <trkpt lat="46.39743" lon="2.35925">
        <ele>417</ele>
        <time>2022-05-02T08:59:10Z</time>
      </trkpt>
      <trkpt lat="46.39724" lon="2.35897">
        <ele>416</ele>
        <time>2022-05-02T08:59:15Z</time>
      </trkpt>
      <trkpt lat="46.39709" lon="2.3587">
        <ele>415</ele>
        <time>2022-05-02T08:59:19Z</time>
      </trkpt>
      <trkpt lat="46.39636" lon="2.35727">
        <ele>415</ele>
        <time>2022-05-02T08:59:41Z</time>
      </trkpt>
      <trkpt lat="46.39582" lon="2.35606">
        <ele>415</ele>
        <time>2022-05-02T08:59:59Z</time>
      </trkpt>
      <trkpt lat="46.39535" lon="2.35477">
        <ele>414</ele>
        <time>2022-05-02T09:00:16Z</time>
      </trkpt>
      <trkpt lat="46.39519" lon="2.35436">
        <ele>414</ele>
        <time>2022-05-02T09:00:22Z</time>
      </trkpt>
      <trkpt lat="46.39503" lon="2.35408">
        <ele>414</ele>
        <time>2022-05-02T09:00:27Z</time>
      </trkpt>
      <trkpt lat="46.39443" lon="2.35353">
        <ele>415</ele>
        <time>2022-05-02T09:00:39Z</time>
      </trkpt>
      <trkpt lat="46.39325" lon="2.35247">
        <ele>418</ele>
        <time>2022-05-02T09:01:04Z</time>
      </trkpt>
      <trkpt lat="46.39114" lon="2.34996">
        <ele>425</ele>
        <time>2022-05-02T09:01:53Z</time>
      </trkpt>
      <trkpt lat="46.39079" lon="2.34952">
        <ele>426</ele>
        <time>2022-05-02T09:02:01Z</time>
      </trkpt>
      <trkpt lat="46.3907" lon="2.34933">
        <ele>427</ele>
        <time>2022-05-02T09:02:04Z</time>
      </trkpt>
      <trkpt lat="46.39063" lon="2.34912">
        <ele>427</ele>
        <time>2022-05-02T09:02:07Z</time>
      </trkpt>
      <trkpt lat="46.39004" lon="2.347">
        <ele>437</ele>
        <time>2022-05-02T09:02:35Z</time>
      </trkpt>
      <trkpt lat="46.38995" lon="2.34677">
        <ele>439</ele>
        <time>2022-05-02T09:02:38Z</time>
      </trkpt>
      <trkpt lat="46.38958" lon="2.34595">
        <ele>443</ele>
        <time>2022-05-02T09:02:50Z</time>
      </trkpt>
      <trkpt lat="46.38947" lon="2.3456">
        <ele>445</ele>
        <time>2022-05-02T09:02:55Z</time>
      </trkpt>
      <trkpt lat="46.38926" lon="2.34474">
        <ele>446</ele>
        <time>2022-05-02T09:03:06Z</time>
      </trkpt>
      <trkpt lat="46.38923" lon="2.34466">
        <ele>446</ele>
        <time>2022-05-02T09:03:07Z</time>
      </trkpt>
      <trkpt lat="46.38858" lon="2.34315">
        <ele>445</ele>
        <time>2022-05-02T09:03:29Z</time>
      </trkpt>
      <trkpt lat="46.38831" lon="2.34265">
        <ele>444</ele>
        <time>2022-05-02T09:03:37Z</time>
      </trkpt>
      <trkpt lat="46.38803" lon="2.34222">
        <ele>446</ele>
        <time>2022-05-02T09:03:44Z</time>
      </trkpt>
      <trkpt lat="46.38754" lon="2.3416">
        <ele>447</ele>
        <time>2022-05-02T09:03:55Z</time>
      </trkpt>
      <trkpt lat="46.38745" lon="2.34139">
        <ele>448</ele>
        <time>2022-05-02T09:03:58Z</time>
      </trkpt>
      <trkpt lat="46.38719" lon="2.3406">
        <ele>450</ele>
        <time>2022-05-02T09:04:09Z</time>
      </trkpt>
      <trkpt lat="46.38717" lon="2.34049">
        <ele>450</ele>
        <time>2022-05-02T09:04:11Z</time>
      </trkpt>
      <trkpt lat="46.38716" lon="2.34035">
        <ele>450</ele>
        <time>2022-05-02T09:04:12Z</time>
      </trkpt>
      <trkpt lat="46.38718" lon="2.34021">
        <ele>450</ele>
        <time>2022-05-02T09:04:14Z</time>
      </trkpt>
      <trkpt lat="46.38752" lon="2.33911">
        <ele>451</ele>
        <time>2022-05-02T09:04:29Z</time>
      </trkpt>
      <trkpt lat="46.38755" lon="2.33896">
        <ele>452</ele>
        <time>2022-05-02T09:04:31Z</time>
      </trkpt>
      <trkpt lat="46.38762" lon="2.3376">
        <ele>455</ele>
        <time>2022-05-02T09:04:47Z</time>
      </trkpt>
      <trkpt lat="46.38761" lon="2.3373">
        <ele>455</ele>
        <time>2022-05-02T09:04:51Z</time>
      </trkpt>
      <trkpt lat="46.38739" lon="2.33621">
        <ele>458</ele>
        <time>2022-05-02T09:05:05Z</time>
      </trkpt>
      <trkpt lat="46.38738" lon="2.33609">
        <ele>458</ele>
        <time>2022-05-02T09:05:07Z</time>
      </trkpt>
      <trkpt lat="46.38742" lon="2.33565">
        <ele>459</ele>
        <time>2022-05-02T09:05:12Z</time>
      </trkpt>
      <trkpt lat="46.38751" lon="2.33517">
        <ele>460</ele>
        <time>2022-05-02T09:05:18Z</time>
      </trkpt>
      <trkpt lat="46.3878" lon="2.33386">
        <ele>458</ele>
        <time>2022-05-02T09:05:35Z</time>
      </trkpt>
      <trkpt lat="46.38781" lon="2.33346">
        <ele>456</ele>
        <time>2022-05-02T09:05:40Z</time>
      </trkpt>
      <trkpt lat="46.38779" lon="2.33327">
        <ele>456</ele>
        <time>2022-05-02T09:05:42Z</time>
      </trkpt>
      <trkpt lat="46.38721" lon="2.33057">
        <ele>461</ele>
        <time>2022-05-02T09:06:17Z</time>
      </trkpt>
      <trkpt lat="46.38719" lon="2.33052">
        <ele>461</ele>
        <time>2022-05-02T09:06:18Z</time>
      </trkpt>
      <trkpt lat="46.38755" lon="2.33029">
        <ele>460</ele>
        <time>2022-05-02T09:06:25Z</time>
      </trkpt>
      <trkpt lat="46.38762" lon="2.33011">
        <ele>460</ele>
        <time>2022-05-02T09:06:27Z</time>
      </trkpt>
      <trkpt lat="46.38765" lon="2.32995">
        <ele>460</ele>
        <time>2022-05-02T09:06:29Z</time>
      </trkpt>
      <trkpt lat="46.38713" lon="2.32798">
        <ele>464</ele>
        <time>2022-05-02T09:06:55Z</time>
      </trkpt>
      <trkpt lat="46.38712" lon="2.32785">
        <ele>464</ele>
        <time>2022-05-02T09:06:57Z</time>
      </trkpt>
      <trkpt lat="46.38724" lon="2.32615">
        <ele>465</ele>
        <time>2022-05-02T09:07:18Z</time>
      </trkpt>
      <trkpt lat="46.38732" lon="2.32584">
        <ele>465</ele>
        <time>2022-05-02T09:07:22Z</time>
      </trkpt>
      <trkpt lat="46.38727" lon="2.32564">
        <ele>465</ele>
        <time>2022-05-02T09:07:24Z</time>
      </trkpt>
      <trkpt lat="46.38712" lon="2.32454">
        <ele>464</ele>
        <time>2022-05-02T09:07:38Z</time>
      </trkpt>
      <trkpt lat="46.38621" lon="2.31832">
        <ele>454</ele>
        <time>2022-05-02T09:08:56Z</time>
      </trkpt>
      <trkpt lat="46.3859" lon="2.31698">
        <ele>451</ele>
        <time>2022-05-02T09:09:14Z</time>
      </trkpt>
      <trkpt lat="46.3858" lon="2.31657">
        <ele>451</ele>
        <time>2022-05-02T09:09:19Z</time>
      </trkpt>
      <trkpt lat="46.38525" lon="2.31494">
        <ele>447</ele>
        <time>2022-05-02T09:09:41Z</time>
      </trkpt>
      <trkpt lat="46.38493" lon="2.31418">
        <ele>444</ele>
        <time>2022-05-02T09:09:52Z</time>
      </trkpt>
      <trkpt lat="46.38479" lon="2.31392">
        <ele>443</ele>
        <time>2022-05-02T09:09:56Z</time>
      </trkpt>
      <trkpt lat="46.38401" lon="2.3127">
        <ele>440</ele>
        <time>2022-05-02T09:10:17Z</time>
      </trkpt>
      <trkpt lat="46.38388" lon="2.31245">
        <ele>440</ele>
        <time>2022-05-02T09:10:20Z</time>
      </trkpt>
      <trkpt lat="46.38377" lon="2.31214">
        <ele>440</ele>
        <time>2022-05-02T09:10:25Z</time>
      </trkpt>
      <trkpt lat="46.3837" lon="2.31188">
        <ele>440</ele>
        <time>2022-05-02T09:10:28Z</time>
      </trkpt>
      <trkpt lat="46.38347" lon="2.30996">
        <ele>439</ele>
        <time>2022-05-02T09:10:52Z</time>
      </trkpt>
      <trkpt lat="46.38312" lon="2.30887">
        <ele>439</ele>
        <time>2022-05-02T09:11:07Z</time>
      </trkpt>
      <trkpt lat="46.38297" lon="2.30853">
        <ele>439</ele>
        <time>2022-05-02T09:11:12Z</time>
      </trkpt>
      <trkpt lat="46.38209" lon="2.30714">
        <ele>439</ele>
        <time>2022-05-02T09:11:35Z</time>
      </trkpt>
      <trkpt lat="46.38177" lon="2.30669">
        <ele>440</ele>
        <time>2022-05-02T09:11:43Z</time>
      </trkpt>
      <trkpt lat="46.38087" lon="2.30559">
        <ele>438</ele>
        <time>2022-05-02T09:12:04Z</time>
      </trkpt>
      <trkpt lat="46.37948" lon="2.30386">
        <ele>440</ele>
        <time>2022-05-02T09:12:36Z</time>
      </trkpt>
      <trkpt lat="46.37931" lon="2.30358">
        <ele>441</ele>
        <time>2022-05-02T09:12:41Z</time>
      </trkpt>
      <trkpt lat="46.37914" lon="2.30321">
        <ele>441</ele>
        <time>2022-05-02T09:12:46Z</time>
      </trkpt>
      <trkpt lat="46.37904" lon="2.30308">
        <ele>440</ele>
        <time>2022-05-02T09:12:49Z</time>
      </trkpt>
      <trkpt lat="46.37893" lon="2.303">
        <ele>440</ele>
        <time>2022-05-02T09:12:51Z</time>
      </trkpt>
      <trkpt lat="46.37879" lon="2.30296">
        <ele>440</ele>
        <time>2022-05-02T09:12:54Z</time>
      </trkpt>
      <trkpt lat="46.37817" lon="2.30284">
        <ele>439</ele>
        <time>2022-05-02T09:13:05Z</time>
      </trkpt>
      <trkpt lat="46.37731" lon="2.30258">
        <ele>436</ele>
        <time>2022-05-02T09:13:20Z</time>
      </trkpt>
      <trkpt lat="46.37703" lon="2.30253">
        <ele>437</ele>
        <time>2022-05-02T09:13:25Z</time>
      </trkpt>
      <trkpt lat="46.37666" lon="2.30251">
        <ele>437</ele>
        <time>2022-05-02T09:13:32Z</time>
      </trkpt>
      <trkpt lat="46.37613" lon="2.30243">
        <ele>436</ele>
        <time>2022-05-02T09:13:41Z</time>
      </trkpt>
      <trkpt lat="46.37491" lon="2.30221">
        <ele>435</ele>
        <time>2022-05-02T09:14:03Z</time>
      </trkpt>
      <trkpt lat="46.37475" lon="2.3022">
        <ele>435</ele>
        <time>2022-05-02T09:14:06Z</time>
      </trkpt>
      <trkpt lat="46.37463" lon="2.30221">
        <ele>435</ele>
        <time>2022-05-02T09:14:08Z</time>
      </trkpt>
      <trkpt lat="46.37451" lon="2.30228">
        <ele>435</ele>
        <time>2022-05-02T09:14:11Z</time>
      </trkpt>
      <trkpt lat="46.37424" lon="2.3025">
        <ele>434</ele>
        <time>2022-05-02T09:14:16Z</time>
      </trkpt>
      <trkpt lat="46.37414" lon="2.3025">
        <ele>434</ele>
        <time>2022-05-02T09:14:18Z</time>
      </trkpt>
      <trkpt lat="46.37405" lon="2.30248">
        <ele>434</ele>
        <time>2022-05-02T09:14:19Z</time>
      </trkpt>
      <trkpt lat="46.37394" lon="2.30242">
        <ele>434</ele>
        <time>2022-05-02T09:14:22Z</time>
      </trkpt>
      <trkpt lat="46.37384" lon="2.30231">
        <ele>434</ele>
        <time>2022-05-02T09:14:24Z</time>
      </trkpt>
      <trkpt lat="46.3737" lon="2.30208">
        <ele>434</ele>
        <time>2022-05-02T09:14:28Z</time>
      </trkpt>
      <trkpt lat="46.37356" lon="2.30178">
        <ele>434</ele>
        <time>2022-05-02T09:14:32Z</time>
      </trkpt>
      <trkpt lat="46.37347" lon="2.30173">
        <ele>434</ele>
        <time>2022-05-02T09:14:34Z</time>
      </trkpt>
      <trkpt lat="46.37299" lon="2.30164">
        <ele>432</ele>
        <time>2022-05-02T09:14:42Z</time>
      </trkpt>
      <trkpt lat="46.37206" lon="2.30135">
        <ele>429</ele>
        <time>2022-05-02T09:14:59Z</time>
      </trkpt>
      <trkpt lat="46.37063" lon="2.30075">
        <ele>425</ele>
        <time>2022-05-02T09:15:26Z</time>
      </trkpt>
      <trkpt lat="46.3701" lon="2.30047">
        <ele>424</ele>
        <time>2022-05-02T09:15:36Z</time>
      </trkpt>
      <trkpt lat="46.36996" lon="2.30044">
        <ele>423</ele>
        <time>2022-05-02T09:15:38Z</time>
      </trkpt>
      <trkpt lat="46.36958" lon="2.30046">
        <ele>423</ele>
        <time>2022-05-02T09:15:45Z</time>
      </trkpt>
      <trkpt lat="46.36938" lon="2.30041">
        <ele>422</ele>
        <time>2022-05-02T09:15:49Z</time>
      </trkpt>
      <trkpt lat="46.36926" lon="2.30033">
        <ele>422</ele>
        <time>2022-05-02T09:15:51Z</time>
      </trkpt>
      <trkpt lat="46.36915" lon="2.30019">
        <ele>422</ele>
        <time>2022-05-02T09:15:54Z</time>
      </trkpt>
      <trkpt lat="46.36848" lon="2.29879">
        <ele>419</ele>
        <time>2022-05-02T09:16:15Z</time>
      </trkpt>
      <trkpt lat="46.3683" lon="2.29852">
        <ele>418</ele>
        <time>2022-05-02T09:16:19Z</time>
      </trkpt>
      <trkpt lat="46.36818" lon="2.29844">
        <ele>418</ele>
        <time>2022-05-02T09:16:21Z</time>
      </trkpt>
      <trkpt lat="46.36684" lon="2.29813">
        <ele>418</ele>
        <time>2022-05-02T09:16:46Z</time>
      </trkpt>
      <trkpt lat="46.36607" lon="2.29788">
        <ele>419</ele>
        <time>2022-05-02T09:17:00Z</time>
      </trkpt>
      <trkpt lat="46.36509" lon="2.29732">
        <ele>420</ele>
        <time>2022-05-02T09:17:18Z</time>
      </trkpt>
      <trkpt lat="46.36423" lon="2.2968">
        <ele>422</ele>
        <time>2022-05-02T09:17:35Z</time>
      </trkpt>
      <trkpt lat="46.36409" lon="2.29673">
        <ele>422</ele>
        <time>2022-05-02T09:17:38Z</time>
      </trkpt>
      <trkpt lat="46.36397" lon="2.29673">
        <ele>422</ele>
        <time>2022-05-02T09:17:40Z</time>
      </trkpt>
      <trkpt lat="46.36382" lon="2.29682">
        <ele>422</ele>
        <time>2022-05-02T09:17:43Z</time>
      </trkpt>
      <trkpt lat="46.36368" lon="2.29694">
        <ele>422</ele>
        <time>2022-05-02T09:17:46Z</time>
      </trkpt>
      <trkpt lat="46.3636" lon="2.29697">
        <ele>423</ele>
        <time>2022-05-02T09:17:47Z</time>
      </trkpt>
      <trkpt lat="46.36346" lon="2.29696">
        <ele>423</ele>
        <time>2022-05-02T09:17:50Z</time>
      </trkpt>
      <trkpt lat="46.36334" lon="2.29676">
        <ele>424</ele>
        <time>2022-05-02T09:17:53Z</time>
      </trkpt>
      <trkpt lat="46.36314" lon="2.29601">
        <ele>424</ele>
        <time>2022-05-02T09:18:03Z</time>
      </trkpt>
      <trkpt lat="46.36305" lon="2.29576">
        <ele>424</ele>
        <time>2022-05-02T09:18:06Z</time>
      </trkpt>
      <trkpt lat="46.36296" lon="2.29554">
        <ele>424</ele>
        <time>2022-05-02T09:18:09Z</time>
      </trkpt>
      <trkpt lat="46.36265" lon="2.29495">
        <ele>424</ele>
        <time>2022-05-02T09:18:18Z</time>
      </trkpt>
      <trkpt lat="46.36253" lon="2.29464">
        <ele>424</ele>
        <time>2022-05-02T09:18:23Z</time>
      </trkpt>
      <trkpt lat="46.36207" lon="2.29314">
        <ele>422</ele>
        <time>2022-05-02T09:18:43Z</time>
      </trkpt>
      <trkpt lat="46.36179" lon="2.2927">
        <ele>421</ele>
        <time>2022-05-02T09:18:50Z</time>
      </trkpt>
      <trkpt lat="46.36177" lon="2.29259">
        <ele>421</ele>
        <time>2022-05-02T09:18:52Z</time>
      </trkpt>
      <trkpt lat="46.36196" lon="2.29245">
        <ele>422</ele>
        <time>2022-05-02T09:18:55Z</time>
      </trkpt>
      <trkpt lat="46.36249" lon="2.29199">
        <ele>422</ele>
        <time>2022-05-02T09:19:06Z</time>
      </trkpt>
      <trkpt lat="46.36268" lon="2.29186">
        <ele>422</ele>
        <time>2022-05-02T09:19:10Z</time>
      </trkpt>
      <trkpt lat="46.36385" lon="2.29157">
        <ele>420</ele>
        <time>2022-05-02T09:19:31Z</time>
      </trkpt>
      <trkpt lat="46.36457" lon="2.29121">
        <ele>417</ele>
        <time>2022-05-02T09:19:45Z</time>
      </trkpt>
      <trkpt lat="46.36508" lon="2.29102">
        <ele>414</ele>
        <time>2022-05-02T09:19:54Z</time>
      </trkpt>
      <trkpt lat="46.36546" lon="2.29093">
        <ele>411</ele>
        <time>2022-05-02T09:20:01Z</time>
      </trkpt>
      <trkpt lat="46.36583" lon="2.29075">
        <ele>409</ele>
        <time>2022-05-02T09:20:08Z</time>
      </trkpt>
      <trkpt lat="46.36674" lon="2.29018">
        <ele>406</ele>
        <time>2022-05-02T09:20:26Z</time>
      </trkpt>
      <trkpt lat="46.36709" lon="2.28989">
        <ele>405</ele>
        <time>2022-05-02T09:20:33Z</time>
      </trkpt>
      <trkpt lat="46.36719" lon="2.28974">
        <ele>405</ele>
        <time>2022-05-02T09:20:35Z</time>
      </trkpt>
      <trkpt lat="46.36722" lon="2.2897">
        <ele>405</ele>
        <time>2022-05-02T09:20:36Z</time>
      </trkpt>
      <trkpt lat="46.36781" lon="2.28877">
        <ele>406</ele>
        <time>2022-05-02T09:20:52Z</time>
      </trkpt>
      <trkpt lat="46.3683" lon="2.28797">
        <ele>409</ele>
        <time>2022-05-02T09:21:05Z</time>
      </trkpt>
      <trkpt lat="46.3686" lon="2.28736">
        <ele>411</ele>
        <time>2022-05-02T09:21:14Z</time>
      </trkpt>
      <trkpt lat="46.36887" lon="2.28648">
        <ele>413</ele>
        <time>2022-05-02T09:21:26Z</time>
      </trkpt>
      <trkpt lat="46.3694" lon="2.28447">
        <ele>416</ele>
        <time>2022-05-02T09:21:52Z</time>
      </trkpt>
      <trkpt lat="46.36946" lon="2.28393">
        <ele>417</ele>
        <time>2022-05-02T09:21:59Z</time>
      </trkpt>
      <trkpt lat="46.36942" lon="2.2823">
        <ele>420</ele>
        <time>2022-05-02T09:22:19Z</time>
      </trkpt>
      <trkpt lat="46.36946" lon="2.282">
        <ele>419</ele>
        <time>2022-05-02T09:22:23Z</time>
      </trkpt>
      <trkpt lat="46.3709" lon="2.27962">
        <ele>425</ele>
        <time>2022-05-02T09:23:02Z</time>
      </trkpt>
      <trkpt lat="46.373" lon="2.2767">
        <ele>434</ele>
        <time>2022-05-02T09:23:53Z</time>
      </trkpt>
      <trkpt lat="46.37316" lon="2.27627">
        <ele>434</ele>
        <time>2022-05-02T09:23:59Z</time>
      </trkpt>
      <trkpt lat="46.37316" lon="2.27556">
        <ele>434</ele>
        <time>2022-05-02T09:24:08Z</time>
      </trkpt>
      <trkpt lat="46.3731" lon="2.27438">
        <ele>437</ele>
        <time>2022-05-02T09:24:23Z</time>
      </trkpt>
      <trkpt lat="46.373" lon="2.26983">
        <ele>441</ele>
        <time>2022-05-02T09:25:18Z</time>
      </trkpt>
      <trkpt lat="46.3729" lon="2.26803">
        <ele>442</ele>
        <time>2022-05-02T09:25:41Z</time>
      </trkpt>
      <trkpt lat="46.37296" lon="2.26755">
        <ele>444</ele>
        <time>2022-05-02T09:25:47Z</time>
      </trkpt>
      <trkpt lat="46.37291" lon="2.26751">
        <ele>443</ele>
        <time>2022-05-02T09:25:48Z</time>
      </trkpt>
      <trkpt lat="46.36858" lon="2.26114">
        <ele>439</ele>
        <time>2022-05-02T09:27:37Z</time>
      </trkpt>
      <trkpt lat="46.36845" lon="2.26084">
        <ele>439</ele>
        <time>2022-05-02T09:27:42Z</time>
      </trkpt>
      <trkpt lat="46.36807" lon="2.2598">
        <ele>436</ele>
        <time>2022-05-02T09:27:56Z</time>
      </trkpt>
      <trkpt lat="46.36777" lon="2.25868">
        <ele>432</ele>
        <time>2022-05-02T09:28:11Z</time>
      </trkpt>
      <trkpt lat="46.36758" lon="2.25816">
        <ele>431</ele>
        <time>2022-05-02T09:28:18Z</time>
      </trkpt>
      <trkpt lat="46.36732" lon="2.25763">
        <ele>430</ele>
        <time>2022-05-02T09:28:26Z</time>
      </trkpt>
      <trkpt lat="46.36686" lon="2.25638">
        <ele>428</ele>
        <time>2022-05-02T09:28:44Z</time>
      </trkpt>
      <trkpt lat="46.36641" lon="2.25276">
        <ele>419</ele>
        <time>2022-05-02T09:29:29Z</time>
      </trkpt>
      <trkpt lat="46.36613" lon="2.25086">
        <ele>417</ele>
        <time>2022-05-02T09:29:53Z</time>
      </trkpt>
      <trkpt lat="46.36617" lon="2.25058">
        <ele>417</ele>
        <time>2022-05-02T09:29:56Z</time>
      </trkpt>
      <trkpt lat="46.36647" lon="2.24874">
        <ele>418</ele>
        <time>2022-05-02T09:30:19Z</time>
      </trkpt>
      <trkpt lat="46.36661" lon="2.24818">
        <ele>419</ele>
        <time>2022-05-02T09:30:27Z</time>
      </trkpt>
      <trkpt lat="46.36662" lon="2.24801">
        <ele>420</ele>
        <time>2022-05-02T09:30:29Z</time>
      </trkpt>
      <trkpt lat="46.36657" lon="2.24779">
        <ele>420</ele>
        <time>2022-05-02T09:30:32Z</time>
      </trkpt>
      <trkpt lat="46.36541" lon="2.24527">
        <ele>420</ele>
        <time>2022-05-02T09:31:09Z</time>
      </trkpt>
      <trkpt lat="46.36527" lon="2.24488">
        <ele>419</ele>
        <time>2022-05-02T09:31:14Z</time>
      </trkpt>
      <trkpt lat="46.36494" lon="2.24331">
        <ele>418</ele>
        <time>2022-05-02T09:31:34Z</time>
      </trkpt>
      <trkpt lat="46.36492" lon="2.24317">
        <ele>418</ele>
        <time>2022-05-02T09:31:36Z</time>
      </trkpt>
      <trkpt lat="46.36496" lon="2.24303">
        <ele>418</ele>
        <time>2022-05-02T09:31:38Z</time>
      </trkpt>
      <trkpt lat="46.36458" lon="2.24197">
        <ele>419</ele>
        <time>2022-05-02T09:31:53Z</time>
      </trkpt>
      <trkpt lat="46.36439" lon="2.24153">
        <ele>418</ele>
        <time>2022-05-02T09:31:59Z</time>
      </trkpt>
      <trkpt lat="46.36411" lon="2.24104">
        <ele>417</ele>
        <time>2022-05-02T09:32:07Z</time>
      </trkpt>
      <trkpt lat="46.36361" lon="2.24027">
        <ele>415</ele>
        <time>2022-05-02T09:32:20Z</time>
      </trkpt>
      <trkpt lat="46.36345" lon="2.24005">
        <ele>414</ele>
        <time>2022-05-02T09:32:24Z</time>
      </trkpt>
      <trkpt lat="46.36327" lon="2.23987">
        <ele>414</ele>
        <time>2022-05-02T09:32:28Z</time>
      </trkpt>
      <trkpt lat="46.36304" lon="2.23976">
        <ele>414</ele>
        <time>2022-05-02T09:32:32Z</time>
      </trkpt>
      <trkpt lat="46.36254" lon="2.23974">
        <ele>413</ele>
        <time>2022-05-02T09:32:41Z</time>
      </trkpt>
      <trkpt lat="46.36236" lon="2.23966">
        <ele>412</ele>
        <time>2022-05-02T09:32:44Z</time>
      </trkpt>
      <trkpt lat="46.36227" lon="2.23957">
        <ele>412</ele>
        <time>2022-05-02T09:32:46Z</time>
      </trkpt>
      <trkpt lat="46.36222" lon="2.23951">
        <ele>411</ele>
        <time>2022-05-02T09:32:47Z</time>
      </trkpt>
      <trkpt lat="46.3617" lon="2.23852">
        <ele>412</ele>
        <time>2022-05-02T09:33:02Z</time>
      </trkpt>
      <trkpt lat="46.36119" lon="2.23751">
        <ele>412</ele>
        <time>2022-05-02T09:33:18Z</time>
      </trkpt>
      <trkpt lat="46.3611" lon="2.23727">
        <ele>413</ele>
        <time>2022-05-02T09:33:21Z</time>
      </trkpt>
      <trkpt lat="46.36099" lon="2.23689">
        <ele>414</ele>
        <time>2022-05-02T09:33:26Z</time>
      </trkpt>
      <trkpt lat="46.36101" lon="2.23655">
        <ele>416</ele>
        <time>2022-05-02T09:33:30Z</time>
      </trkpt>
      <trkpt lat="46.36099" lon="2.2361">
        <ele>418</ele>
        <time>2022-05-02T09:33:36Z</time>
      </trkpt>
      <trkpt lat="46.36073" lon="2.23392">
        <ele>425</ele>
        <time>2022-05-02T09:34:03Z</time>
      </trkpt>
      <trkpt lat="46.36063" lon="2.2339">
        <ele>424</ele>
        <time>2022-05-02T09:34:05Z</time>
      </trkpt>
      <trkpt lat="46.36043" lon="2.2337">
        <ele>422</ele>
        <time>2022-05-02T09:34:09Z</time>
      </trkpt>
      <trkpt lat="46.35802" lon="2.23077">
        <ele>412</ele>
        <time>2022-05-02T09:35:05Z</time>
      </trkpt>
      <trkpt lat="46.35771" lon="2.23043">
        <ele>412</ele>
        <time>2022-05-02T09:35:12Z</time>
      </trkpt>
      <trkpt lat="46.3575" lon="2.23022">
        <ele>412</ele>
        <time>2022-05-02T09:35:17Z</time>
      </trkpt>
      <trkpt lat="46.35704" lon="2.22981">
        <ele>411</ele>
        <time>2022-05-02T09:35:26Z</time>
      </trkpt>
      <trkpt lat="46.3568" lon="2.22957">
        <ele>410</ele>
        <time>2022-05-02T09:35:31Z</time>
      </trkpt>
      <trkpt lat="46.35658" lon="2.2293">
        <ele>409</ele>
        <time>2022-05-02T09:35:37Z</time>
      </trkpt>
      <trkpt lat="46.35639" lon="2.22894">
        <ele>409</ele>
        <time>2022-05-02T09:35:42Z</time>
      </trkpt>
      <trkpt lat="46.35625" lon="2.22851">
        <ele>408</ele>
        <time>2022-05-02T09:35:48Z</time>
      </trkpt>
      <trkpt lat="46.35607" lon="2.22766">
        <ele>407</ele>
        <time>2022-05-02T09:35:59Z</time>
      </trkpt>
      <trkpt lat="46.35593" lon="2.22734">
        <ele>405</ele>
        <time>2022-05-02T09:36:04Z</time>
      </trkpt>
      <trkpt lat="46.35507" lon="2.22583">
        <ele>398</ele>
        <time>2022-05-02T09:36:28Z</time>
      </trkpt>
      <trkpt lat="46.35468" lon="2.22517">
        <ele>397</ele>
        <time>2022-05-02T09:36:38Z</time>
      </trkpt>
      <trkpt lat="46.35412" lon="2.22407">
        <ele>395</ele>
        <time>2022-05-02T09:36:55Z</time>
      </trkpt>
      <trkpt lat="46.35389" lon="2.22357">
        <ele>393</ele>
        <time>2022-05-02T09:37:02Z</time>
      </trkpt>
      <trkpt lat="46.35366" lon="2.22318">
        <ele>391</ele>
        <time>2022-05-02T09:37:09Z</time>
      </trkpt>
      <trkpt lat="46.35341" lon="2.22287">
        <ele>390</ele>
        <time>2022-05-02T09:37:15Z</time>
      </trkpt>
      <trkpt lat="46.35313" lon="2.22262">
        <ele>389</ele>
        <time>2022-05-02T09:37:20Z</time>
      </trkpt>
      <trkpt lat="46.35234" lon="2.22202">
        <ele>386</ele>
        <time>2022-05-02T09:37:36Z</time>
      </trkpt>
      <trkpt lat="46.35216" lon="2.22184">
        <ele>385</ele>
        <time>2022-05-02T09:37:40Z</time>
      </trkpt>
      <trkpt lat="46.35203" lon="2.22161">
        <ele>385</ele>
        <time>2022-05-02T09:37:44Z</time>
      </trkpt>
      <trkpt lat="46.35198" lon="2.22142">
        <ele>384</ele>
        <time>2022-05-02T09:37:46Z</time>
      </trkpt>
      <trkpt lat="46.35195" lon="2.22064">
        <ele>383</ele>
        <time>2022-05-02T09:37:56Z</time>
      </trkpt>
      <trkpt lat="46.35192" lon="2.22047">
        <ele>383</ele>
        <time>2022-05-02T09:37:58Z</time>
      </trkpt>
      <trkpt lat="46.35181" lon="2.22022">
        <ele>382</ele>
        <time>2022-05-02T09:38:02Z</time>
      </trkpt>
      <trkpt lat="46.35171" lon="2.22006">
        <ele>382</ele>
        <time>2022-05-02T09:38:04Z</time>
      </trkpt>
      <trkpt lat="46.35163" lon="2.22">
        <ele>382</ele>
        <time>2022-05-02T09:38:06Z</time>
      </trkpt>
      <trkpt lat="46.35146" lon="2.21993">
        <ele>382</ele>
        <time>2022-05-02T09:38:09Z</time>
      </trkpt>
      <trkpt lat="46.35137" lon="2.21992">
        <ele>382</ele>
        <time>2022-05-02T09:38:11Z</time>
      </trkpt>
      <trkpt lat="46.35124" lon="2.21996">
        <ele>382</ele>
        <time>2022-05-02T09:38:13Z</time>
      </trkpt>
      <trkpt lat="46.35088" lon="2.22023">
        <ele>382</ele>
        <time>2022-05-02T09:38:20Z</time>
      </trkpt>
      <trkpt lat="46.35075" lon="2.2203">
        <ele>382</ele>
        <time>2022-05-02T09:38:23Z</time>
      </trkpt>
      <trkpt lat="46.35071" lon="2.22035">
        <ele>382</ele>
        <time>2022-05-02T09:38:24Z</time>
      </trkpt>
      <trkpt lat="46.35061" lon="2.22022">
        <ele>382</ele>
        <time>2022-05-02T09:38:26Z</time>
      </trkpt>
      <trkpt lat="46.35055" lon="2.2201">
        <ele>382</ele>
        <time>2022-05-02T09:38:28Z</time>
      </trkpt>
      <trkpt lat="46.35008" lon="2.21888">
        <ele>381</ele>
        <time>2022-05-02T09:38:45Z</time>
      </trkpt>
      <trkpt lat="46.34985" lon="2.21855">
        <ele>380</ele>
        <time>2022-05-02T09:38:51Z</time>
      </trkpt>
      <trkpt lat="46.34967" lon="2.21826">
        <ele>380</ele>
        <time>2022-05-02T09:38:56Z</time>
      </trkpt>
      <trkpt lat="46.34942" lon="2.21792">
        <ele>380</ele>
        <time>2022-05-02T09:39:02Z</time>
      </trkpt>
      <trkpt lat="46.34938" lon="2.21783">
        <ele>379</ele>
        <time>2022-05-02T09:39:03Z</time>
      </trkpt>
      <trkpt lat="46.34934" lon="2.21786">
        <ele>379</ele>
        <time>2022-05-02T09:39:04Z</time>
      </trkpt>
      <trkpt lat="46.34931" lon="2.21793">
        <ele>380</ele>
        <time>2022-05-02T09:39:05Z</time>
      </trkpt>
      <trkpt lat="46.34927" lon="2.21804">
        <ele>380</ele>
        <time>2022-05-02T09:39:06Z</time>
      </trkpt>
      <trkpt lat="46.34912" lon="2.21882">
        <ele>380</ele>
        <time>2022-05-02T09:39:16Z</time>
      </trkpt>
      <trkpt lat="46.34913" lon="2.21896">
        <ele>381</ele>
        <time>2022-05-02T09:39:18Z</time>
      </trkpt>
      <trkpt lat="46.34927" lon="2.21958">
        <ele>380</ele>
        <time>2022-05-02T09:39:26Z</time>
      </trkpt>
      <trkpt lat="46.34925" lon="2.21971">
        <ele>380</ele>
        <time>2022-05-02T09:39:28Z</time>
      </trkpt>
      <trkpt lat="46.34917" lon="2.21969">
        <ele>380</ele>
        <time>2022-05-02T09:39:29Z</time>
      </trkpt>
      <trkpt lat="46.34909" lon="2.21971">
        <ele>379</ele>
        <time>2022-05-02T09:39:31Z</time>
      </trkpt>
      <trkpt lat="46.34798" lon="2.21999">
        <ele>373</ele>
        <time>2022-05-02T09:39:51Z</time>
      </trkpt>
      <trkpt lat="46.34786" lon="2.21998">
        <ele>372</ele>
        <time>2022-05-02T09:39:53Z</time>
      </trkpt>
      <trkpt lat="46.34775" lon="2.22055">
        <ele>372</ele>
        <time>2022-05-02T09:40:00Z</time>
      </trkpt>
      <trkpt lat="46.34681" lon="2.22443">
        <ele>378</ele>
        <time>2022-05-02T09:40:51Z</time>
      </trkpt>
      <trkpt lat="46.34666" lon="2.22482">
        <ele>378</ele>
        <time>2022-05-02T09:40:56Z</time>
      </trkpt>
      <trkpt lat="46.34647" lon="2.22517">
        <ele>377</ele>
        <time>2022-05-02T09:41:02Z</time>
      </trkpt>
      <trkpt lat="46.34632" lon="2.22539">
        <ele>376</ele>
        <time>2022-05-02T09:41:05Z</time>
      </trkpt>
      <trkpt lat="46.34609" lon="2.22563">
        <ele>375</ele>
        <time>2022-05-02T09:41:10Z</time>
      </trkpt>
      <trkpt lat="46.34597" lon="2.22573">
        <ele>375</ele>
        <time>2022-05-02T09:41:13Z</time>
      </trkpt>
      <trkpt lat="46.34567" lon="2.22587">
        <ele>374</ele>
        <time>2022-05-02T09:41:18Z</time>
      </trkpt>
      <trkpt lat="46.34542" lon="2.22593">
        <ele>372</ele>
        <time>2022-05-02T09:41:23Z</time>
      </trkpt>
      <trkpt lat="46.34515" lon="2.22594">
        <ele>370</ele>
        <time>2022-05-02T09:41:28Z</time>
      </trkpt>
      <trkpt lat="46.3449" lon="2.22588">
        <ele>369</ele>
        <time>2022-05-02T09:41:32Z</time>
      </trkpt>
      <trkpt lat="46.34474" lon="2.22579">
        <ele>369</ele>
        <time>2022-05-02T09:41:35Z</time>
      </trkpt>
      <trkpt lat="46.3443" lon="2.22541">
        <ele>367</ele>
        <time>2022-05-02T09:41:44Z</time>
      </trkpt>
      <trkpt lat="46.34398" lon="2.22522">
        <ele>366</ele>
        <time>2022-05-02T09:41:51Z</time>
      </trkpt>
      <trkpt lat="46.34372" lon="2.22514">
        <ele>365</ele>
        <time>2022-05-02T09:41:55Z</time>
      </trkpt>
      <trkpt lat="46.34348" lon="2.22511">
        <ele>365</ele>
        <time>2022-05-02T09:42:00Z</time>
      </trkpt>
      <trkpt lat="46.34287" lon="2.22508">
        <ele>366</ele>
        <time>2022-05-02T09:42:10Z</time>
      </trkpt>
      <trkpt lat="46.34269" lon="2.22509">
        <ele>367</ele>
        <time>2022-05-02T09:42:14Z</time>
      </trkpt>
      <trkpt lat="46.34248" lon="2.22515">
        <ele>367</ele>
        <time>2022-05-02T09:42:18Z</time>
      </trkpt>
      <trkpt lat="46.3423" lon="2.22526">
        <ele>368</ele>
        <time>2022-05-02T09:42:21Z</time>
      </trkpt>
      <trkpt lat="46.34216" lon="2.22538">
        <ele>369</ele>
        <time>2022-05-02T09:42:24Z</time>
      </trkpt>
      <trkpt lat="46.34195" lon="2.22568">
        <ele>369</ele>
        <time>2022-05-02T09:42:29Z</time>
      </trkpt>
      <trkpt lat="46.34155" lon="2.2266">
        <ele>370</ele>
        <time>2022-05-02T09:42:42Z</time>
      </trkpt>
      <trkpt lat="46.34138" lon="2.22696">
        <ele>372</ele>
        <time>2022-05-02T09:42:48Z</time>
      </trkpt>
      <trkpt lat="46.34076" lon="2.22802">
        <ele>375</ele>
        <time>2022-05-02T09:43:05Z</time>
      </trkpt>
      <trkpt lat="46.34059" lon="2.22837">
        <ele>375</ele>
        <time>2022-05-02T09:43:10Z</time>
      </trkpt>
      <trkpt lat="46.34012" lon="2.22956">
        <ele>378</ele>
        <time>2022-05-02T09:43:27Z</time>
      </trkpt>
      <trkpt lat="46.33995" lon="2.22992">
        <ele>379</ele>
        <time>2022-05-02T09:43:32Z</time>
      </trkpt>
      <trkpt lat="46.33924" lon="2.23125">
        <ele>385</ele>
        <time>2022-05-02T09:43:53Z</time>
      </trkpt>
      <trkpt lat="46.33733" lon="2.23604">
        <ele>394</ele>
        <time>2022-05-02T09:45:01Z</time>
      </trkpt>
      <trkpt lat="46.33659" lon="2.23523">
        <ele>394</ele>
        <time>2022-05-02T09:45:17Z</time>
      </trkpt>
      <trkpt lat="46.33642" lon="2.23507">
        <ele>395</ele>
        <time>2022-05-02T09:45:21Z</time>
      </trkpt>
      <trkpt lat="46.33616" lon="2.23461">
        <ele>396</ele>
        <time>2022-05-02T09:45:28Z</time>
      </trkpt>
      <trkpt lat="46.33587" lon="2.23383">
        <ele>396</ele>
        <time>2022-05-02T09:45:39Z</time>
      </trkpt>
      <trkpt lat="46.33556" lon="2.23327">
        <ele>398</ele>
        <time>2022-05-02T09:45:48Z</time>
      </trkpt>
      <trkpt lat="46.3353" lon="2.23295">
        <ele>400</ele>
        <time>2022-05-02T09:45:54Z</time>
      </trkpt>
      <trkpt lat="46.33512" lon="2.23282">
        <ele>401</ele>
        <time>2022-05-02T09:45:58Z</time>
      </trkpt>
      <trkpt lat="46.33456" lon="2.23264">
        <ele>411</ele>
        <time>2022-05-02T09:46:08Z</time>
      </trkpt>
      <trkpt lat="46.33444" lon="2.23246">
        <ele>413</ele>
        <time>2022-05-02T09:46:11Z</time>
      </trkpt>
      <trkpt lat="46.33436" lon="2.23221">
        <ele>414</ele>
        <time>2022-05-02T09:46:14Z</time>
      </trkpt>
      <trkpt lat="46.33415" lon="2.23125">
        <ele>412</ele>
        <time>2022-05-02T09:46:27Z</time>
      </trkpt>
      <trkpt lat="46.33404" lon="2.23095">
        <ele>412</ele>
        <time>2022-05-02T09:46:31Z</time>
      </trkpt>
      <trkpt lat="46.33386" lon="2.23061">
        <ele>416</ele>
        <time>2022-05-02T09:46:36Z</time>
      </trkpt>
      <trkpt lat="46.33365" lon="2.23035">
        <ele>421</ele>
        <time>2022-05-02T09:46:41Z</time>
      </trkpt>
      <trkpt lat="46.33334" lon="2.23007">
        <ele>426</ele>
        <time>2022-05-02T09:46:48Z</time>
      </trkpt>
      <trkpt lat="46.33309" lon="2.22999">
        <ele>428</ele>
        <time>2022-05-02T09:46:52Z</time>
      </trkpt>
      <trkpt lat="46.33259" lon="2.22996">
        <ele>432</ele>
        <time>2022-05-02T09:47:01Z</time>
      </trkpt>
      <trkpt lat="46.33237" lon="2.22989">
        <ele>433</ele>
        <time>2022-05-02T09:47:05Z</time>
      </trkpt>
      <trkpt lat="46.33181" lon="2.22951">
        <ele>434</ele>
        <time>2022-05-02T09:47:16Z</time>
      </trkpt>
      <trkpt lat="46.33153" lon="2.22914">
        <ele>435</ele>
        <time>2022-05-02T09:47:23Z</time>
      </trkpt>
      <trkpt lat="46.3313" lon="2.22878">
        <ele>437</ele>
        <time>2022-05-02T09:47:29Z</time>
      </trkpt>
      <trkpt lat="46.33125" lon="2.22866">
        <ele>437</ele>
        <time>2022-05-02T09:47:31Z</time>
      </trkpt>
      <trkpt lat="46.33119" lon="2.22841">
        <ele>438</ele>
        <time>2022-05-02T09:47:34Z</time>
      </trkpt>
      <trkpt lat="46.3308" lon="2.22875">
        <ele>439</ele>
        <time>2022-05-02T09:47:42Z</time>
      </trkpt>
      <trkpt lat="46.33054" lon="2.22885">
        <ele>441</ele>
        <time>2022-05-02T09:47:47Z</time>
      </trkpt>
      <trkpt lat="46.33045" lon="2.22896">
        <ele>441</ele>
        <time>2022-05-02T09:47:49Z</time>
      </trkpt>
      <trkpt lat="46.33029" lon="2.22908">
        <ele>443</ele>
        <time>2022-05-02T09:47:52Z</time>
      </trkpt>
      <trkpt lat="46.33011" lon="2.22955">
        <ele>445</ele>
        <time>2022-05-02T09:47:59Z</time>
      </trkpt>
      <trkpt lat="46.32993" lon="2.22993">
        <ele>448</ele>
        <time>2022-05-02T09:48:04Z</time>
      </trkpt>
      <trkpt lat="46.32969" lon="2.2302">
        <ele>449</ele>
        <time>2022-05-02T09:48:10Z</time>
      </trkpt>
      <trkpt lat="46.32954" lon="2.23033">
        <ele>450</ele>
        <time>2022-05-02T09:48:13Z</time>
      </trkpt>
      <trkpt lat="46.32927" lon="2.23044">
        <ele>452</ele>
        <time>2022-05-02T09:48:18Z</time>
      </trkpt>
      <trkpt lat="46.32906" lon="2.23039">
        <ele>454</ele>
        <time>2022-05-02T09:48:22Z</time>
      </trkpt>
      <trkpt lat="46.32815" lon="2.22987">
        <ele>463</ele>
        <time>2022-05-02T09:48:39Z</time>
      </trkpt>
      <trkpt lat="46.3278" lon="2.22982">
        <ele>465</ele>
        <time>2022-05-02T09:48:45Z</time>
      </trkpt>
      <trkpt lat="46.32741" lon="2.2298">
        <ele>465</ele>
        <time>2022-05-02T09:48:52Z</time>
      </trkpt>
      <trkpt lat="46.32711" lon="2.22973">
        <ele>463</ele>
        <time>2022-05-02T09:48:58Z</time>
      </trkpt>
      <trkpt lat="46.32697" lon="2.22972">
        <ele>463</ele>
        <time>2022-05-02T09:49:00Z</time>
      </trkpt>
      <trkpt lat="46.32681" lon="2.22979">
        <ele>461</ele>
        <time>2022-05-02T09:49:03Z</time>
      </trkpt>
      <trkpt lat="46.32591" lon="2.23033">
        <ele>460</ele>
        <time>2022-05-02T09:49:20Z</time>
      </trkpt>
      <trkpt lat="46.3257" lon="2.2304">
        <ele>461</ele>
        <time>2022-05-02T09:49:24Z</time>
      </trkpt>
      <trkpt lat="46.32526" lon="2.23028">
        <ele>462</ele>
        <time>2022-05-02T09:49:32Z</time>
      </trkpt>
      <trkpt lat="46.32516" lon="2.23027">
        <ele>463</ele>
        <time>2022-05-02T09:49:34Z</time>
      </trkpt>
      <trkpt lat="46.32505" lon="2.23033">
        <ele>463</ele>
        <time>2022-05-02T09:49:36Z</time>
      </trkpt>
      <trkpt lat="46.32488" lon="2.23052">
        <ele>465</ele>
        <time>2022-05-02T09:49:40Z</time>
      </trkpt>
      <trkpt lat="46.32479" lon="2.23059">
        <ele>465</ele>
        <time>2022-05-02T09:49:42Z</time>
      </trkpt>
      <trkpt lat="46.32466" lon="2.23062">
        <ele>466</ele>
        <time>2022-05-02T09:49:44Z</time>
      </trkpt>
      <trkpt lat="46.32443" lon="2.23053">
        <ele>468</ele>
        <time>2022-05-02T09:49:48Z</time>
      </trkpt>
      <trkpt lat="46.32409" lon="2.23028">
        <ele>471</ele>
        <time>2022-05-02T09:49:55Z</time>
      </trkpt>
      <trkpt lat="46.32399" lon="2.23025">
        <ele>472</ele>
        <time>2022-05-02T09:49:57Z</time>
      </trkpt>
      <trkpt lat="46.32387" lon="2.23026">
        <ele>474</ele>
        <time>2022-05-02T09:49:59Z</time>
      </trkpt>
      <trkpt lat="46.32335" lon="2.23053">
        <ele>478</ele>
        <time>2022-05-02T09:50:09Z</time>
      </trkpt>
      <trkpt lat="46.32287" lon="2.23073">
        <ele>481</ele>
        <time>2022-05-02T09:50:18Z</time>
      </trkpt>
      <trkpt lat="46.32221" lon="2.23093">
        <ele>488</ele>
        <time>2022-05-02T09:50:30Z</time>
      </trkpt>
      <trkpt lat="46.3221" lon="2.23103">
        <ele>489</ele>
        <time>2022-05-02T09:50:32Z</time>
      </trkpt>
      <trkpt lat="46.32197" lon="2.23129">
        <ele>489</ele>
        <time>2022-05-02T09:50:36Z</time>
      </trkpt>
      <trkpt lat="46.32182" lon="2.23171">
        <ele>489</ele>
        <time>2022-05-02T09:50:42Z</time>
      </trkpt>
      <trkpt lat="46.32176" lon="2.23182">
        <ele>489</ele>
        <time>2022-05-02T09:50:44Z</time>
      </trkpt>
      <trkpt lat="46.32134" lon="2.23216">
        <ele>494</ele>
        <time>2022-05-02T09:50:52Z</time>
      </trkpt>
      <trkpt lat="46.32122" lon="2.23234">
        <ele>495</ele>
        <time>2022-05-02T09:50:55Z</time>
      </trkpt>
      <trkpt lat="46.32112" lon="2.23261">
        <ele>497</ele>
        <time>2022-05-02T09:50:59Z</time>
      </trkpt>
      <trkpt lat="46.3211" lon="2.23283">
        <ele>499</ele>
        <time>2022-05-02T09:51:02Z</time>
      </trkpt>
      <trkpt lat="46.32118" lon="2.23327">
        <ele>500</ele>
        <time>2022-05-02T09:51:07Z</time>
      </trkpt>
      <trkpt lat="46.32119" lon="2.23345">
        <ele>500</ele>
        <time>2022-05-02T09:51:09Z</time>
      </trkpt>
      <trkpt lat="46.32115" lon="2.2336">
        <ele>501</ele>
        <time>2022-05-02T09:51:11Z</time>
      </trkpt>
      <trkpt lat="46.32109" lon="2.2337">
        <ele>502</ele>
        <time>2022-05-02T09:51:13Z</time>
      </trkpt>
      <trkpt lat="46.32052" lon="2.23419">
        <ele>510</ele>
        <time>2022-05-02T09:51:25Z</time>
      </trkpt>
      <trkpt lat="46.3202" lon="2.23442">
        <ele>510</ele>
        <time>2022-05-02T09:51:31Z</time>
      </trkpt>
      <trkpt lat="46.32005" lon="2.23449">
        <ele>511</ele>
        <time>2022-05-02T09:51:34Z</time>
      </trkpt>
      <trkpt lat="46.31991" lon="2.23449">
        <ele>511</ele>
        <time>2022-05-02T09:51:37Z</time>
      </trkpt>
      <trkpt lat="46.31977" lon="2.23444">
        <ele>512</ele>
        <time>2022-05-02T09:51:39Z</time>
      </trkpt>
      <trkpt lat="46.31964" lon="2.23432">
        <ele>512</ele>
        <time>2022-05-02T09:51:42Z</time>
      </trkpt>
      <trkpt lat="46.31862" lon="2.23233">
        <ele>517</ele>
        <time>2022-05-02T09:52:12Z</time>
      </trkpt>
      <trkpt lat="46.31853" lon="2.23223">
        <ele>518</ele>
        <time>2022-05-02T09:52:14Z</time>
      </trkpt>
      <trkpt lat="46.31838" lon="2.23216">
        <ele>519</ele>
        <time>2022-05-02T09:52:17Z</time>
      </trkpt>
      <trkpt lat="46.31819" lon="2.23212">
        <ele>519</ele>
        <time>2022-05-02T09:52:21Z</time>
      </trkpt>
      <trkpt lat="46.31663" lon="2.2317">
        <ele>520</ele>
        <time>2022-05-02T09:52:49Z</time>
      </trkpt>
      <trkpt lat="46.31375" lon="2.23171">
        <ele>530</ele>
        <time>2022-05-02T09:53:40Z</time>
      </trkpt>
      <trkpt lat="46.31369" lon="2.23172">
        <ele>530</ele>
        <time>2022-05-02T09:53:41Z</time>
      </trkpt>
      <trkpt lat="46.31289" lon="2.23171">
        <ele>536</ele>
        <time>2022-05-02T09:53:55Z</time>
      </trkpt>
      <trkpt lat="46.31191" lon="2.23147">
        <ele>542</ele>
        <time>2022-05-02T09:54:13Z</time>
      </trkpt>
      <trkpt lat="46.31018" lon="2.23134">
        <ele>542</ele>
        <time>2022-05-02T09:54:44Z</time>
      </trkpt>
      <trkpt lat="46.30931" lon="2.23112">
        <ele>542</ele>
        <time>2022-05-02T09:55:00Z</time>
      </trkpt>
      <trkpt lat="46.30914" lon="2.23104">
        <ele>541</ele>
        <time>2022-05-02T09:55:03Z</time>
      </trkpt>
      <trkpt lat="46.30855" lon="2.23056">
        <ele>542</ele>
        <time>2022-05-02T09:55:15Z</time>
      </trkpt>
      <trkpt lat="46.30826" lon="2.23044">
        <ele>540</ele>
        <time>2022-05-02T09:55:20Z</time>
      </trkpt>
      <trkpt lat="46.30749" lon="2.23034">
        <ele>534</ele>
        <time>2022-05-02T09:55:34Z</time>
      </trkpt>
      <trkpt lat="46.30732" lon="2.23029">
        <ele>532</ele>
        <time>2022-05-02T09:55:37Z</time>
      </trkpt>
      <trkpt lat="46.30712" lon="2.23013">
        <ele>530</ele>
        <time>2022-05-02T09:55:41Z</time>
      </trkpt>
      <trkpt lat="46.30626" lon="2.22916">
        <ele>522</ele>
        <time>2022-05-02T09:56:00Z</time>
      </trkpt>
      <trkpt lat="46.30614" lon="2.22897">
        <ele>521</ele>
        <time>2022-05-02T09:56:04Z</time>
      </trkpt>
      <trkpt lat="46.30601" lon="2.22864">
        <ele>519</ele>
        <time>2022-05-02T09:56:08Z</time>
      </trkpt>
      <trkpt lat="46.30538" lon="2.22684">
        <ele>516</ele>
        <time>2022-05-02T09:56:33Z</time>
      </trkpt>
      <trkpt lat="46.30528" lon="2.22666">
        <ele>515</ele>
        <time>2022-05-02T09:56:36Z</time>
      </trkpt>
      <trkpt lat="46.30517" lon="2.22658">
        <ele>513</ele>
        <time>2022-05-02T09:56:38Z</time>
      </trkpt>
      <trkpt lat="46.30502" lon="2.22659">
        <ele>511</ele>
        <time>2022-05-02T09:56:41Z</time>
      </trkpt>
      <trkpt lat="46.30493" lon="2.22665">
        <ele>510</ele>
        <time>2022-05-02T09:56:43Z</time>
      </trkpt>
      <trkpt lat="46.30488" lon="2.22675">
        <ele>509</ele>
        <time>2022-05-02T09:56:44Z</time>
      </trkpt>
      <trkpt lat="46.30485" lon="2.2269">
        <ele>508</ele>
        <time>2022-05-02T09:56:46Z</time>
      </trkpt>
      <trkpt lat="46.30484" lon="2.22707">
        <ele>508</ele>
        <time>2022-05-02T09:56:48Z</time>
      </trkpt>
      <trkpt lat="46.30491" lon="2.22761">
        <ele>507</ele>
        <time>2022-05-02T09:56:55Z</time>
      </trkpt>
      <trkpt lat="46.30492" lon="2.22781">
        <ele>507</ele>
        <time>2022-05-02T09:56:57Z</time>
      </trkpt>
      <trkpt lat="46.30488" lon="2.22805">
        <ele>506</ele>
        <time>2022-05-02T09:57:00Z</time>
      </trkpt>
      <trkpt lat="46.30461" lon="2.22906">
        <ele>499</ele>
        <time>2022-05-02T09:57:14Z</time>
      </trkpt>
      <trkpt lat="46.30453" lon="2.22916">
        <ele>498</ele>
        <time>2022-05-02T09:57:15Z</time>
      </trkpt>
      <trkpt lat="46.30443" lon="2.22921">
        <ele>497</ele>
        <time>2022-05-02T09:57:17Z</time>
      </trkpt>
      <trkpt lat="46.30432" lon="2.2292">
        <ele>496</ele>
        <time>2022-05-02T09:57:19Z</time>
      </trkpt>
      <trkpt lat="46.30423" lon="2.22913">
        <ele>495</ele>
        <time>2022-05-02T09:57:21Z</time>
      </trkpt>
      <trkpt lat="46.30416" lon="2.22899">
        <ele>495</ele>
        <time>2022-05-02T09:57:23Z</time>
      </trkpt>
      <trkpt lat="46.30408" lon="2.2287">
        <ele>495</ele>
        <time>2022-05-02T09:57:27Z</time>
      </trkpt>
      <trkpt lat="46.30399" lon="2.22857">
        <ele>495</ele>
        <time>2022-05-02T09:57:29Z</time>
      </trkpt>
      <trkpt lat="46.3039" lon="2.22852">
        <ele>495</ele>
        <time>2022-05-02T09:57:31Z</time>
      </trkpt>
      <trkpt lat="46.30379" lon="2.22853">
        <ele>494</ele>
        <time>2022-05-02T09:57:33Z</time>
      </trkpt>
      <trkpt lat="46.30369" lon="2.22857">
        <ele>494</ele>
        <time>2022-05-02T09:57:35Z</time>
      </trkpt>
      <trkpt lat="46.30337" lon="2.22877">
        <ele>492</ele>
        <time>2022-05-02T09:57:41Z</time>
      </trkpt>
      <trkpt lat="46.30282" lon="2.22904">
        <ele>494</ele>
        <time>2022-05-02T09:57:51Z</time>
      </trkpt>
      <trkpt lat="46.30269" lon="2.22905">
        <ele>495</ele>
        <time>2022-05-02T09:57:54Z</time>
      </trkpt>
      <trkpt lat="46.3024" lon="2.22895">
        <ele>497</ele>
        <time>2022-05-02T09:57:59Z</time>
      </trkpt>
      <trkpt lat="46.30225" lon="2.22893">
        <ele>498</ele>
        <time>2022-05-02T09:58:02Z</time>
      </trkpt>
      <trkpt lat="46.30171" lon="2.22905">
        <ele>502</ele>
        <time>2022-05-02T09:58:11Z</time>
      </trkpt>
      <trkpt lat="46.30156" lon="2.22906">
        <ele>502</ele>
        <time>2022-05-02T09:58:14Z</time>
      </trkpt>
      <trkpt lat="46.30143" lon="2.22905">
        <ele>502</ele>
        <time>2022-05-02T09:58:16Z</time>
      </trkpt>
      <trkpt lat="46.30114" lon="2.22896">
        <ele>502</ele>
        <time>2022-05-02T09:58:22Z</time>
      </trkpt>
      <trkpt lat="46.30105" lon="2.22897">
        <ele>503</ele>
        <time>2022-05-02T09:58:23Z</time>
      </trkpt>
      <trkpt lat="46.3007" lon="2.22928">
        <ele>502</ele>
        <time>2022-05-02T09:58:31Z</time>
      </trkpt>
      <trkpt lat="46.30053" lon="2.22945">
        <ele>503</ele>
        <time>2022-05-02T09:58:34Z</time>
      </trkpt>
      <trkpt lat="46.3004" lon="2.22963">
        <ele>503</ele>
        <time>2022-05-02T09:58:38Z</time>
      </trkpt>
      <trkpt lat="46.30024" lon="2.23004">
        <ele>503</ele>
        <time>2022-05-02T09:58:43Z</time>
      </trkpt>
      <trkpt lat="46.29985" lon="2.23165">
        <ele>499</ele>
        <time>2022-05-02T09:59:04Z</time>
      </trkpt>
      <trkpt lat="46.29981" lon="2.23172">
        <ele>499</ele>
        <time>2022-05-02T09:59:05Z</time>
      </trkpt>
      <trkpt lat="46.29969" lon="2.23181">
        <ele>498</ele>
        <time>2022-05-02T09:59:08Z</time>
      </trkpt>
      <trkpt lat="46.29938" lon="2.23186">
        <ele>497</ele>
        <time>2022-05-02T09:59:13Z</time>
      </trkpt>
      <trkpt lat="46.29875" lon="2.23183">
        <ele>496</ele>
        <time>2022-05-02T09:59:25Z</time>
      </trkpt>
      <trkpt lat="46.29849" lon="2.23185">
        <ele>495</ele>
        <time>2022-05-02T09:59:29Z</time>
      </trkpt>
      <trkpt lat="46.29836" lon="2.23192">
        <ele>495</ele>
        <time>2022-05-02T09:59:32Z</time>
      </trkpt>
      <trkpt lat="46.29797" lon="2.23229">
        <ele>496</ele>
        <time>2022-05-02T09:59:40Z</time>
      </trkpt>
      <trkpt lat="46.29781" lon="2.23261">
        <ele>498</ele>
        <time>2022-05-02T09:59:45Z</time>
      </trkpt>
      <trkpt lat="46.29763" lon="2.23283">
        <ele>500</ele>
        <time>2022-05-02T09:59:49Z</time>
      </trkpt>
      <trkpt lat="46.29738" lon="2.23308">
        <ele>503</ele>
        <time>2022-05-02T09:59:54Z</time>
      </trkpt>
      <trkpt lat="46.29711" lon="2.23327">
        <ele>504</ele>
        <time>2022-05-02T10:00:00Z</time>
      </trkpt>
      <trkpt lat="46.2961" lon="2.23359">
        <ele>508</ele>
        <time>2022-05-02T10:00:18Z</time>
      </trkpt>
      <trkpt lat="46.29587" lon="2.23361">
        <ele>508</ele>
        <time>2022-05-02T10:00:22Z</time>
      </trkpt>
      <trkpt lat="46.29567" lon="2.23357">
        <ele>509</ele>
        <time>2022-05-02T10:00:26Z</time>
      </trkpt>
      <trkpt lat="46.29494" lon="2.23335">
        <ele>511</ele>
        <time>2022-05-02T10:00:39Z</time>
      </trkpt>
      <trkpt lat="46.29468" lon="2.23329">
        <ele>512</ele>
        <time>2022-05-02T10:00:44Z</time>
      </trkpt>
      <trkpt lat="46.29448" lon="2.23329">
        <ele>513</ele>
        <time>2022-05-02T10:00:47Z</time>
      </trkpt>
      <trkpt lat="46.2943" lon="2.23334">
        <ele>514</ele>
        <time>2022-05-02T10:00:51Z</time>
      </trkpt>
      <trkpt lat="46.29018" lon="2.23487">
        <ele>530</ele>
        <time>2022-05-02T10:02:06Z</time>
      </trkpt>
      <trkpt lat="46.2901" lon="2.23493">
        <ele>529</ele>
        <time>2022-05-02T10:02:08Z</time>
      </trkpt>
      <trkpt lat="46.29004" lon="2.23502">
        <ele>528</ele>
        <time>2022-05-02T10:02:09Z</time>
      </trkpt>
      <trkpt lat="46.28998" lon="2.23515">
        <ele>527</ele>
        <time>2022-05-02T10:02:11Z</time>
      </trkpt>
      <trkpt lat="46.28986" lon="2.23548">
        <ele>524</ele>
        <time>2022-05-02T10:02:16Z</time>
      </trkpt>
      <trkpt lat="46.28975" lon="2.23558">
        <ele>523</ele>
        <time>2022-05-02T10:02:18Z</time>
      </trkpt>
      <trkpt lat="46.28967" lon="2.23561">
        <ele>522</ele>
        <time>2022-05-02T10:02:20Z</time>
      </trkpt>
      <trkpt lat="46.28954" lon="2.23558">
        <ele>521</ele>
        <time>2022-05-02T10:02:22Z</time>
      </trkpt>
      <trkpt lat="46.28944" lon="2.23551">
        <ele>521</ele>
        <time>2022-05-02T10:02:24Z</time>
      </trkpt>
      <trkpt lat="46.28937" lon="2.23535">
        <ele>522</ele>
        <time>2022-05-02T10:02:26Z</time>
      </trkpt>
      <trkpt lat="46.2893" lon="2.23525">
        <ele>522</ele>
        <time>2022-05-02T10:02:28Z</time>
      </trkpt>
      <trkpt lat="46.28923" lon="2.23519">
        <ele>522</ele>
        <time>2022-05-02T10:02:30Z</time>
      </trkpt>
      <trkpt lat="46.28874" lon="2.23507">
        <ele>517</ele>
        <time>2022-05-02T10:02:38Z</time>
      </trkpt>
      <trkpt lat="46.28854" lon="2.23512">
        <ele>514</ele>
        <time>2022-05-02T10:02:42Z</time>
      </trkpt>
      <trkpt lat="46.28839" lon="2.23523">
        <ele>511</ele>
        <time>2022-05-02T10:02:45Z</time>
      </trkpt>
      <trkpt lat="46.28814" lon="2.23546">
        <ele>508</ele>
        <time>2022-05-02T10:02:50Z</time>
      </trkpt>
      <trkpt lat="46.28807" lon="2.23562">
        <ele>507</ele>
        <time>2022-05-02T10:02:53Z</time>
      </trkpt>
      <trkpt lat="46.28799" lon="2.23603">
        <ele>505</ele>
        <time>2022-05-02T10:02:58Z</time>
      </trkpt>
      <trkpt lat="46.28794" lon="2.23615">
        <ele>504</ele>
        <time>2022-05-02T10:03:00Z</time>
      </trkpt>
      <trkpt lat="46.28785" lon="2.23625">
        <ele>504</ele>
        <time>2022-05-02T10:03:02Z</time>
      </trkpt>
      <trkpt lat="46.28742" lon="2.23648">
        <ele>502</ele>
        <time>2022-05-02T10:03:10Z</time>
      </trkpt>
      <trkpt lat="46.28726" lon="2.23652">
        <ele>502</ele>
        <time>2022-05-02T10:03:13Z</time>
      </trkpt>
      <trkpt lat="46.2869" lon="2.2364">
        <ele>503</ele>
        <time>2022-05-02T10:03:19Z</time>
      </trkpt>
      <trkpt lat="46.28683" lon="2.2364">
        <ele>503</ele>
        <time>2022-05-02T10:03:20Z</time>
      </trkpt>
      <trkpt lat="46.28666" lon="2.23651">
        <ele>502</ele>
        <time>2022-05-02T10:03:24Z</time>
      </trkpt>
      <trkpt lat="46.28642" lon="2.23677">
        <ele>502</ele>
        <time>2022-05-02T10:03:29Z</time>
      </trkpt>
      <trkpt lat="46.28614" lon="2.23714">
        <ele>501</ele>
        <time>2022-05-02T10:03:36Z</time>
      </trkpt>
      <trkpt lat="46.28608" lon="2.23734">
        <ele>501</ele>
        <time>2022-05-02T10:03:39Z</time>
      </trkpt>
      <trkpt lat="46.28595" lon="2.2382">
        <ele>497</ele>
        <time>2022-05-02T10:03:49Z</time>
      </trkpt>
      <trkpt lat="46.28587" lon="2.23832">
        <ele>497</ele>
        <time>2022-05-02T10:03:51Z</time>
      </trkpt>
      <trkpt lat="46.28561" lon="2.23846">
        <ele>498</ele>
        <time>2022-05-02T10:03:56Z</time>
      </trkpt>
      <trkpt lat="46.28545" lon="2.23851">
        <ele>498</ele>
        <time>2022-05-02T10:03:59Z</time>
      </trkpt>
      <trkpt lat="46.28545" lon="2.23866">
        <ele>498</ele>
        <time>2022-05-02T10:04:01Z</time>
      </trkpt>
      <trkpt lat="46.28505" lon="2.23926">
        <ele>496</ele>
        <time>2022-05-02T10:04:11Z</time>
      </trkpt>
      <trkpt lat="46.28488" lon="2.23942">
        <ele>494</ele>
        <time>2022-05-02T10:04:15Z</time>
      </trkpt>
      <trkpt lat="46.28382" lon="2.24026">
        <ele>485</ele>
        <time>2022-05-02T10:04:36Z</time>
      </trkpt>
      <trkpt lat="46.28356" lon="2.24034">
        <ele>485</ele>
        <time>2022-05-02T10:04:41Z</time>
      </trkpt>
      <trkpt lat="46.2834" lon="2.24035">
        <ele>485</ele>
        <time>2022-05-02T10:04:44Z</time>
      </trkpt>
      <trkpt lat="46.28311" lon="2.24026">
        <ele>486</ele>
        <time>2022-05-02T10:04:49Z</time>
      </trkpt>
      <trkpt lat="46.28286" lon="2.24021">
        <ele>488</ele>
        <time>2022-05-02T10:04:54Z</time>
      </trkpt>
      <trkpt lat="46.28268" lon="2.24024">
        <ele>489</ele>
        <time>2022-05-02T10:04:57Z</time>
      </trkpt>
      <trkpt lat="46.28236" lon="2.24048">
        <ele>489</ele>
        <time>2022-05-02T10:05:03Z</time>
      </trkpt>
      <trkpt lat="46.28222" lon="2.24062">
        <ele>488</ele>
        <time>2022-05-02T10:05:06Z</time>
      </trkpt>
      <trkpt lat="46.28196" lon="2.2408">
        <ele>486</ele>
        <time>2022-05-02T10:05:12Z</time>
      </trkpt>
      <trkpt lat="46.28168" lon="2.2409">
        <ele>484</ele>
        <time>2022-05-02T10:05:17Z</time>
      </trkpt>
      <trkpt lat="46.2814" lon="2.24088">
        <ele>484</ele>
        <time>2022-05-02T10:05:22Z</time>
      </trkpt>
      <trkpt lat="46.28084" lon="2.24072">
        <ele>486</ele>
        <time>2022-05-02T10:05:32Z</time>
      </trkpt>
      <trkpt lat="46.28048" lon="2.24072">
        <ele>489</ele>
        <time>2022-05-02T10:05:38Z</time>
      </trkpt>
      <trkpt lat="46.28008" lon="2.24082">
        <ele>491</ele>
        <time>2022-05-02T10:05:46Z</time>
      </trkpt>
      <trkpt lat="46.2796" lon="2.2411">
        <ele>491</ele>
        <time>2022-05-02T10:05:55Z</time>
      </trkpt>
      <trkpt lat="46.2787" lon="2.24192">
        <ele>490</ele>
        <time>2022-05-02T10:06:14Z</time>
      </trkpt>
      <trkpt lat="46.27846" lon="2.24202">
        <ele>490</ele>
        <time>2022-05-02T10:06:18Z</time>
      </trkpt>
      <trkpt lat="46.2782" lon="2.24254">
        <ele>487</ele>
        <time>2022-05-02T10:06:26Z</time>
      </trkpt>
      <trkpt lat="46.27772" lon="2.2436">
        <ele>485</ele>
        <time>2022-05-02T10:06:42Z</time>
      </trkpt>
      <trkpt lat="46.27752" lon="2.24386">
        <ele>484</ele>
        <time>2022-05-02T10:06:46Z</time>
      </trkpt>
      <trkpt lat="46.27625" lon="2.24481">
        <ele>478</ele>
        <time>2022-05-02T10:07:12Z</time>
      </trkpt>
      <trkpt lat="46.27609" lon="2.24489">
        <ele>477</ele>
        <time>2022-05-02T10:07:15Z</time>
      </trkpt>
      <trkpt lat="46.27567" lon="2.24499">
        <ele>475</ele>
        <time>2022-05-02T10:07:22Z</time>
      </trkpt>
      <trkpt lat="46.27555" lon="2.24504">
        <ele>474</ele>
        <time>2022-05-02T10:07:25Z</time>
      </trkpt>
      <trkpt lat="46.27544" lon="2.24516">
        <ele>473</ele>
        <time>2022-05-02T10:07:27Z</time>
      </trkpt>
      <trkpt lat="46.27535" lon="2.24535">
        <ele>472</ele>
        <time>2022-05-02T10:07:30Z</time>
      </trkpt>
      <trkpt lat="46.27534" lon="2.24542">
        <ele>471</ele>
        <time>2022-05-02T10:07:31Z</time>
      </trkpt>
      <trkpt lat="46.27516" lon="2.24536">
        <ele>471</ele>
        <time>2022-05-02T10:07:34Z</time>
      </trkpt>
      <trkpt lat="46.27493" lon="2.24532">
        <ele>472</ele>
        <time>2022-05-02T10:07:38Z</time>
      </trkpt>
      <trkpt lat="46.27473" lon="2.24532">
        <ele>472</ele>
        <time>2022-05-02T10:07:42Z</time>
      </trkpt>
      <trkpt lat="46.27453" lon="2.24535">
        <ele>472</ele>
        <time>2022-05-02T10:07:45Z</time>
      </trkpt>
      <trkpt lat="46.27431" lon="2.24542">
        <ele>472</ele>
        <time>2022-05-02T10:07:49Z</time>
      </trkpt>
      <trkpt lat="46.27411" lon="2.24553">
        <ele>471</ele>
        <time>2022-05-02T10:07:53Z</time>
      </trkpt>
      <trkpt lat="46.27385" lon="2.24574">
        <ele>470</ele>
        <time>2022-05-02T10:07:58Z</time>
      </trkpt>
      <trkpt lat="46.27362" lon="2.24595">
        <ele>469</ele>
        <time>2022-05-02T10:08:03Z</time>
      </trkpt>
      <trkpt lat="46.27328" lon="2.24633">
        <ele>466</ele>
        <time>2022-05-02T10:08:11Z</time>
      </trkpt>
      <trkpt lat="46.27309" lon="2.24656">
        <ele>465</ele>
        <time>2022-05-02T10:08:15Z</time>
      </trkpt>
      <trkpt lat="46.27287" lon="2.24682">
        <ele>464</ele>
        <time>2022-05-02T10:08:20Z</time>
      </trkpt>
      <trkpt lat="46.27257" lon="2.24702">
        <ele>464</ele>
        <time>2022-05-02T10:08:26Z</time>
      </trkpt>
      <trkpt lat="46.27173" lon="2.24738">
        <ele>463</ele>
        <time>2022-05-02T10:08:42Z</time>
      </trkpt>
      <trkpt lat="46.2718" lon="2.24793">
        <ele>463</ele>
        <time>2022-05-02T10:08:49Z</time>
      </trkpt>
      <trkpt lat="46.27193" lon="2.24875">
        <ele>461</ele>
        <time>2022-05-02T10:08:59Z</time>
      </trkpt>
      <trkpt lat="46.27193" lon="2.24889">
        <ele>461</ele>
        <time>2022-05-02T10:09:01Z</time>
      </trkpt>
      <trkpt lat="46.2719" lon="2.24928">
        <ele>459</ele>
        <time>2022-05-02T10:09:06Z</time>
      </trkpt>
      <trkpt lat="46.27113" lon="2.25319">
        <ele>441</ele>
        <time>2022-05-02T10:09:56Z</time>
      </trkpt>
      <trkpt lat="46.2711" lon="2.25352">
        <ele>441</ele>
        <time>2022-05-02T10:10:00Z</time>
      </trkpt>
      <trkpt lat="46.27112" lon="2.2543">
        <ele>443</ele>
        <time>2022-05-02T10:10:09Z</time>
      </trkpt>
      <trkpt lat="46.27109" lon="2.25481">
        <ele>446</ele>
        <time>2022-05-02T10:10:16Z</time>
      </trkpt>
      <trkpt lat="46.27102" lon="2.25523">
        <ele>446</ele>
        <time>2022-05-02T10:10:21Z</time>
      </trkpt>
      <trkpt lat="46.27073" lon="2.25613">
        <ele>446</ele>
        <time>2022-05-02T10:10:33Z</time>
      </trkpt>
      <trkpt lat="46.27066" lon="2.25647">
        <ele>446</ele>
        <time>2022-05-02T10:10:37Z</time>
      </trkpt>
      <trkpt lat="46.27055" lon="2.25736">
        <ele>447</ele>
        <time>2022-05-02T10:10:49Z</time>
      </trkpt>
      <trkpt lat="46.27035" lon="2.25958">
        <ele>452</ele>
        <time>2022-05-02T10:11:16Z</time>
      </trkpt>
      <trkpt lat="46.27059" lon="2.26152">
        <ele>451</ele>
        <time>2022-05-02T10:11:40Z</time>
      </trkpt>
      <trkpt lat="46.27059" lon="2.26246">
        <ele>449</ele>
        <time>2022-05-02T10:11:52Z</time>
      </trkpt>
      <trkpt lat="46.27056" lon="2.26279">
        <ele>449</ele>
        <time>2022-05-02T10:11:56Z</time>
      </trkpt>
      <trkpt lat="46.27049" lon="2.26314">
        <ele>449</ele>
        <time>2022-05-02T10:12:01Z</time>
      </trkpt>
      <trkpt lat="46.27039" lon="2.26352">
        <ele>448</ele>
        <time>2022-05-02T10:12:06Z</time>
      </trkpt>
      <trkpt lat="46.26782" lon="2.27157">
        <ele>428</ele>
        <time>2022-05-02T10:13:55Z</time>
      </trkpt>
      <trkpt lat="46.26775" lon="2.27181">
        <ele>428</ele>
        <time>2022-05-02T10:13:58Z</time>
      </trkpt>
      <trkpt lat="46.26773" lon="2.27197">
        <ele>429</ele>
        <time>2022-05-02T10:14:00Z</time>
      </trkpt>
      <trkpt lat="46.26774" lon="2.27212">
        <ele>429</ele>
        <time>2022-05-02T10:14:02Z</time>
      </trkpt>
      <trkpt lat="46.26797" lon="2.2739">
        <ele>434</ele>
        <time>2022-05-02T10:14:24Z</time>
      </trkpt>
      <trkpt lat="46.26814" lon="2.2767">
        <ele>442</ele>
        <time>2022-05-02T10:14:58Z</time>
      </trkpt>
      <trkpt lat="46.2681" lon="2.27712">
        <ele>444</ele>
        <time>2022-05-02T10:15:04Z</time>
      </trkpt>
      <trkpt lat="46.26779" lon="2.27835">
        <ele>445</ele>
        <time>2022-05-02T10:15:20Z</time>
      </trkpt>
      <trkpt lat="46.26775" lon="2.27906">
        <ele>444</ele>
        <time>2022-05-02T10:15:29Z</time>
      </trkpt>
      <trkpt lat="46.26712" lon="2.28092">
        <ele>442</ele>
        <time>2022-05-02T10:15:54Z</time>
      </trkpt>
      <trkpt lat="46.26695" lon="2.2813">
        <ele>441</ele>
        <time>2022-05-02T10:16:00Z</time>
      </trkpt>
      <trkpt lat="46.26672" lon="2.28167">
        <ele>441</ele>
        <time>2022-05-02T10:16:06Z</time>
      </trkpt>
      <trkpt lat="46.26613" lon="2.2824">
        <ele>439</ele>
        <time>2022-05-02T10:16:20Z</time>
      </trkpt>
      <trkpt lat="46.26546" lon="2.28396">
        <ele>436</ele>
        <time>2022-05-02T10:16:42Z</time>
      </trkpt>
      <trkpt lat="46.2653" lon="2.28496">
        <ele>434</ele>
        <time>2022-05-02T10:16:55Z</time>
      </trkpt>
      <trkpt lat="46.26513" lon="2.2855">
        <ele>433</ele>
        <time>2022-05-02T10:17:02Z</time>
      </trkpt>
      <trkpt lat="46.2643" lon="2.28703">
        <ele>431</ele>
        <time>2022-05-02T10:17:26Z</time>
      </trkpt>
      <trkpt lat="46.26357" lon="2.28785">
        <ele>429</ele>
        <time>2022-05-02T10:17:42Z</time>
      </trkpt>
      <trkpt lat="46.26344" lon="2.28808">
        <ele>428</ele>
        <time>2022-05-02T10:17:46Z</time>
      </trkpt>
      <trkpt lat="46.2634" lon="2.28831">
        <ele>428</ele>
        <time>2022-05-02T10:17:49Z</time>
      </trkpt>
      <trkpt lat="46.26338" lon="2.28863">
        <ele>429</ele>
        <time>2022-05-02T10:17:53Z</time>
      </trkpt>
      <trkpt lat="46.26355" lon="2.28929">
        <ele>431</ele>
        <time>2022-05-02T10:18:02Z</time>
      </trkpt>
      <trkpt lat="46.26361" lon="2.29166">
        <ele>435</ele>
        <time>2022-05-02T10:18:31Z</time>
      </trkpt>
      <trkpt lat="46.26353" lon="2.29203">
        <ele>435</ele>
        <time>2022-05-02T10:18:36Z</time>
      </trkpt>
      <trkpt lat="46.26334" lon="2.29251">
        <ele>435</ele>
        <time>2022-05-02T10:18:42Z</time>
      </trkpt>
      <trkpt lat="46.26311" lon="2.29286">
        <ele>437</ele>
        <time>2022-05-02T10:18:48Z</time>
      </trkpt>
      <trkpt lat="46.26159" lon="2.29452">
        <ele>442</ele>
        <time>2022-05-02T10:19:22Z</time>
      </trkpt>
      <trkpt lat="46.26056" lon="2.29683">
        <ele>439</ele>
        <time>2022-05-02T10:19:56Z</time>
      </trkpt>
      <trkpt lat="46.26051" lon="2.29695">
        <ele>439</ele>
        <time>2022-05-02T10:19:58Z</time>
      </trkpt>
      <trkpt lat="46.26044" lon="2.29725">
        <ele>440</ele>
        <time>2022-05-02T10:20:02Z</time>
      </trkpt>
      <trkpt lat="46.26034" lon="2.29742">
        <ele>441</ele>
        <time>2022-05-02T10:20:04Z</time>
      </trkpt>
      <trkpt lat="46.26027" lon="2.29764">
        <ele>441</ele>
        <time>2022-05-02T10:20:07Z</time>
      </trkpt>
      <trkpt lat="46.26019" lon="2.29794">
        <ele>441</ele>
        <time>2022-05-02T10:20:11Z</time>
      </trkpt>
      <trkpt lat="46.26011" lon="2.29817">
        <ele>441</ele>
        <time>2022-05-02T10:20:14Z</time>
      </trkpt>
      <trkpt lat="46.26002" lon="2.29838">
        <ele>441</ele>
        <time>2022-05-02T10:20:18Z</time>
      </trkpt>
      <trkpt lat="46.25983" lon="2.2987">
        <ele>441</ele>
        <time>2022-05-02T10:20:23Z</time>
      </trkpt>
      <trkpt lat="46.25978" lon="2.29889">
        <ele>441</ele>
        <time>2022-05-02T10:20:25Z</time>
      </trkpt>
      <trkpt lat="46.2598" lon="2.29927">
        <ele>442</ele>
        <time>2022-05-02T10:20:30Z</time>
      </trkpt>
      <trkpt lat="46.25994" lon="2.30009">
        <ele>445</ele>
        <time>2022-05-02T10:20:40Z</time>
      </trkpt>
      <trkpt lat="46.26007" lon="2.30118">
        <ele>445</ele>
        <time>2022-05-02T10:20:54Z</time>
      </trkpt>
      <trkpt lat="46.26017" lon="2.30158">
        <ele>446</ele>
        <time>2022-05-02T10:20:59Z</time>
      </trkpt>
      <trkpt lat="46.26031" lon="2.30196">
        <ele>446</ele>
        <time>2022-05-02T10:21:04Z</time>
      </trkpt>
      <trkpt lat="46.26076" lon="2.30304">
        <ele>448</ele>
        <time>2022-05-02T10:21:20Z</time>
      </trkpt>
      <trkpt lat="46.26086" lon="2.30347">
        <ele>448</ele>
        <time>2022-05-02T10:21:25Z</time>
      </trkpt>
      <trkpt lat="46.26091" lon="2.30392">
        <ele>448</ele>
        <time>2022-05-02T10:21:31Z</time>
      </trkpt>
      <trkpt lat="46.26161" lon="2.30739">
        <ele>455</ele>
        <time>2022-05-02T10:22:16Z</time>
      </trkpt>
      <trkpt lat="46.26389" lon="2.32028">
        <ele>433</ele>
        <time>2022-05-02T10:24:59Z</time>
      </trkpt>
      <trkpt lat="46.26397" lon="2.32204">
        <ele>431</ele>
        <time>2022-05-02T10:25:21Z</time>
      </trkpt>
      <trkpt lat="46.264" lon="2.3222">
        <ele>431</ele>
        <time>2022-05-02T10:25:23Z</time>
      </trkpt>
      <trkpt lat="46.26406" lon="2.32241">
        <ele>431</ele>
        <time>2022-05-02T10:25:26Z</time>
      </trkpt>
      <trkpt lat="46.26529" lon="2.32483">
        <ele>434</ele>
        <time>2022-05-02T10:26:03Z</time>
      </trkpt>
      <trkpt lat="46.26573" lon="2.32644">
        <ele>426</ele>
        <time>2022-05-02T10:26:24Z</time>
      </trkpt>
      <trkpt lat="46.26621" lon="2.32817">
        <ele>419</ele>
        <time>2022-05-02T10:26:47Z</time>
      </trkpt>
      <trkpt lat="46.26636" lon="2.32867">
        <ele>420</ele>
        <time>2022-05-02T10:26:54Z</time>
      </trkpt>
      <trkpt lat="46.26647" lon="2.32896">
        <ele>420</ele>
        <time>2022-05-02T10:26:58Z</time>
      </trkpt>
      <trkpt lat="46.2665" lon="2.3293">
        <ele>420</ele>
        <time>2022-05-02T10:27:02Z</time>
      </trkpt>
      <trkpt lat="46.26651" lon="2.32969">
        <ele>419</ele>
        <time>2022-05-02T10:27:07Z</time>
      </trkpt>
      <trkpt lat="46.26584" lon="2.33243">
        <ele>414</ele>
        <time>2022-05-02T10:27:42Z</time>
      </trkpt>
      <trkpt lat="46.26578" lon="2.3331">
        <ele>412</ele>
        <time>2022-05-02T10:27:51Z</time>
      </trkpt>
      <trkpt lat="46.26583" lon="2.33352">
        <ele>412</ele>
        <time>2022-05-02T10:27:56Z</time>
      </trkpt>
      <trkpt lat="46.26592" lon="2.33394">
        <ele>413</ele>
        <time>2022-05-02T10:28:01Z</time>
      </trkpt>
      <trkpt lat="46.26626" lon="2.33477">
        <ele>415</ele>
        <time>2022-05-02T10:28:13Z</time>
      </trkpt>
      <trkpt lat="46.26674" lon="2.33577">
        <ele>417</ele>
        <time>2022-05-02T10:28:28Z</time>
      </trkpt>
      <trkpt lat="46.26721" lon="2.33641">
        <ele>418</ele>
        <time>2022-05-02T10:28:40Z</time>
      </trkpt>
      <trkpt lat="46.26756" lon="2.33681">
        <ele>418</ele>
        <time>2022-05-02T10:28:48Z</time>
      </trkpt>
      <trkpt lat="46.26774" lon="2.33695">
        <ele>419</ele>
        <time>2022-05-02T10:28:51Z</time>
      </trkpt>
      <trkpt lat="46.26782" lon="2.33734">
        <ele>420</ele>
        <time>2022-05-02T10:28:56Z</time>
      </trkpt>
      <trkpt lat="46.26783" lon="2.33748">
        <ele>420</ele>
        <time>2022-05-02T10:28:58Z</time>
      </trkpt>
      <trkpt lat="46.26795" lon="2.33757">
        <ele>420</ele>
        <time>2022-05-02T10:29:00Z</time>
      </trkpt>
      <trkpt lat="46.26806" lon="2.33764">
        <ele>421</ele>
        <time>2022-05-02T10:29:03Z</time>
      </trkpt>
      <trkpt lat="46.26859" lon="2.33786">
        <ele>421</ele>
        <time>2022-05-02T10:29:12Z</time>
      </trkpt>
      <trkpt lat="46.2687" lon="2.33798">
        <ele>420</ele>
        <time>2022-05-02T10:29:15Z</time>
      </trkpt>
      <trkpt lat="46.26885" lon="2.33838">
        <ele>419</ele>
        <time>2022-05-02T10:29:20Z</time>
      </trkpt>
      <trkpt lat="46.26892" lon="2.33864">
        <ele>418</ele>
        <time>2022-05-02T10:29:24Z</time>
      </trkpt>
      <trkpt lat="46.26894" lon="2.33888">
        <ele>417</ele>
        <time>2022-05-02T10:29:27Z</time>
      </trkpt>
      <trkpt lat="46.26899" lon="2.34037">
        <ele>412</ele>
        <time>2022-05-02T10:29:45Z</time>
      </trkpt>
      <trkpt lat="46.26887" lon="2.34152">
        <ele>410</ele>
        <time>2022-05-02T10:30:00Z</time>
      </trkpt>
      <trkpt lat="46.26868" lon="2.34187">
        <ele>410</ele>
        <time>2022-05-02T10:30:05Z</time>
      </trkpt>
      <trkpt lat="46.26803" lon="2.34248">
        <ele>408</ele>
        <time>2022-05-02T10:30:19Z</time>
      </trkpt>
      <trkpt lat="46.26772" lon="2.34314">
        <ele>410</ele>
        <time>2022-05-02T10:30:29Z</time>
      </trkpt>
      <trkpt lat="46.26769" lon="2.34342">
        <ele>410</ele>
        <time>2022-05-02T10:30:32Z</time>
      </trkpt>
      <trkpt lat="46.26775" lon="2.34371">
        <ele>411</ele>
        <time>2022-05-02T10:30:36Z</time>
      </trkpt>
      <trkpt lat="46.26829" lon="2.34479">
        <ele>418</ele>
        <time>2022-05-02T10:30:52Z</time>
      </trkpt>
      <trkpt lat="46.26837" lon="2.3449">
        <ele>418</ele>
        <time>2022-05-02T10:30:54Z</time>
      </trkpt>
      <trkpt lat="46.26865" lon="2.3451">
        <ele>419</ele>
        <time>2022-05-02T10:31:00Z</time>
      </trkpt>
      <trkpt lat="46.26875" lon="2.34522">
        <ele>419</ele>
        <time>2022-05-02T10:31:02Z</time>
      </trkpt>
      <trkpt lat="46.26883" lon="2.34536">
        <ele>420</ele>
        <time>2022-05-02T10:31:04Z</time>
      </trkpt>
      <trkpt lat="46.26899" lon="2.34572">
        <ele>421</ele>
        <time>2022-05-02T10:31:10Z</time>
      </trkpt>
      <trkpt lat="46.2691" lon="2.34591">
        <ele>421</ele>
        <time>2022-05-02T10:31:13Z</time>
      </trkpt>
      <trkpt lat="46.2698" lon="2.34666">
        <ele>425</ele>
        <time>2022-05-02T10:31:28Z</time>
      </trkpt>
      <trkpt lat="46.26987" lon="2.34678">
        <ele>425</ele>
        <time>2022-05-02T10:31:30Z</time>
      </trkpt>
      <trkpt lat="46.26992" lon="2.347">
        <ele>425</ele>
        <time>2022-05-02T10:31:33Z</time>
      </trkpt>
      <trkpt lat="46.26989" lon="2.34788">
        <ele>426</ele>
        <time>2022-05-02T10:31:44Z</time>
      </trkpt>
      <trkpt lat="46.26989" lon="2.3484">
        <ele>426</ele>
        <time>2022-05-02T10:31:50Z</time>
      </trkpt>
      <trkpt lat="46.2704" lon="2.34994">
        <ele>429</ele>
        <time>2022-05-02T10:32:11Z</time>
      </trkpt>
      <trkpt lat="46.27046" lon="2.35022">
        <ele>429</ele>
        <time>2022-05-02T10:32:15Z</time>
      </trkpt>
      <trkpt lat="46.27062" lon="2.35133">
        <ele>428</ele>
        <time>2022-05-02T10:32:29Z</time>
      </trkpt>
      <trkpt lat="46.27063" lon="2.35156">
        <ele>428</ele>
        <time>2022-05-02T10:32:31Z</time>
      </trkpt>
      <trkpt lat="46.27059" lon="2.35175">
        <ele>427</ele>
        <time>2022-05-02T10:32:34Z</time>
      </trkpt>
      <trkpt lat="46.27059" lon="2.35184">
        <ele>427</ele>
        <time>2022-05-02T10:32:35Z</time>
      </trkpt>
      <trkpt lat="46.27064" lon="2.35198">
        <ele>426</ele>
        <time>2022-05-02T10:32:37Z</time>
      </trkpt>
      <trkpt lat="46.27066" lon="2.35226">
        <ele>425</ele>
        <time>2022-05-02T10:32:40Z</time>
      </trkpt>
      <trkpt lat="46.2707" lon="2.35244">
        <ele>424</ele>
        <time>2022-05-02T10:32:43Z</time>
      </trkpt>
      <trkpt lat="46.27074" lon="2.35288">
        <ele>423</ele>
        <time>2022-05-02T10:32:48Z</time>
      </trkpt>
      <trkpt lat="46.27087" lon="2.35361">
        <ele>422</ele>
        <time>2022-05-02T10:32:57Z</time>
      </trkpt>
      <trkpt lat="46.27098" lon="2.35405">
        <ele>421</ele>
        <time>2022-05-02T10:33:03Z</time>
      </trkpt>
      <trkpt lat="46.27111" lon="2.35445">
        <ele>421</ele>
        <time>2022-05-02T10:33:09Z</time>
      </trkpt>
      <trkpt lat="46.2713" lon="2.35487">
        <ele>422</ele>
        <time>2022-05-02T10:33:15Z</time>
      </trkpt>
      <trkpt lat="46.27178" lon="2.35584">
        <ele>424</ele>
        <time>2022-05-02T10:33:30Z</time>
      </trkpt>
      <trkpt lat="46.27253" lon="2.35741">
        <ele>428</ele>
        <time>2022-05-02T10:33:53Z</time>
      </trkpt>
      <trkpt lat="46.27285" lon="2.35801">
        <ele>429</ele>
        <time>2022-05-02T10:34:02Z</time>
      </trkpt>
      <trkpt lat="46.273" lon="2.35825">
        <ele>429</ele>
        <time>2022-05-02T10:34:06Z</time>
      </trkpt>
      <trkpt lat="46.27391" lon="2.3592">
        <ele>434</ele>
        <time>2022-05-02T10:34:26Z</time>
      </trkpt>
      <trkpt lat="46.27403" lon="2.3594">
        <ele>434</ele>
        <time>2022-05-02T10:34:30Z</time>
      </trkpt>
      <trkpt lat="46.27416" lon="2.35968">
        <ele>435</ele>
        <time>2022-05-02T10:34:34Z</time>
      </trkpt>
      <trkpt lat="46.27527" lon="2.3631">
        <ele>430</ele>
        <time>2022-05-02T10:35:20Z</time>
      </trkpt>
      <trkpt lat="46.27545" lon="2.36355">
        <ele>429</ele>
        <time>2022-05-02T10:35:27Z</time>
      </trkpt>
      <trkpt lat="46.2762" lon="2.36488">
        <ele>428</ele>
        <time>2022-05-02T10:35:48Z</time>
      </trkpt>
      <trkpt lat="46.27707" lon="2.36635">
        <ele>430</ele>
        <time>2022-05-02T10:36:11Z</time>
      </trkpt>
      <trkpt lat="46.27889" lon="2.36953">
        <ele>445</ele>
        <time>2022-05-02T10:37:02Z</time>
      </trkpt>
      <trkpt lat="46.27967" lon="2.37085">
        <ele>449</ele>
        <time>2022-05-02T10:37:24Z</time>
      </trkpt>
      <trkpt lat="46.28014" lon="2.37168">
        <ele>448</ele>
        <time>2022-05-02T10:37:37Z</time>
      </trkpt>
      <trkpt lat="46.28029" lon="2.37199">
        <ele>449</ele>
        <time>2022-05-02T10:37:41Z</time>
      </trkpt>
      <trkpt lat="46.28044" lon="2.37237">
        <ele>449</ele>
        <time>2022-05-02T10:37:47Z</time>
      </trkpt>
      <trkpt lat="46.28062" lon="2.37305">
        <ele>448</ele>
        <time>2022-05-02T10:37:56Z</time>
      </trkpt>
      <trkpt lat="46.28069" lon="2.37354">
        <ele>447</ele>
        <time>2022-05-02T10:38:02Z</time>
      </trkpt>
      <trkpt lat="46.28073" lon="2.37416">
        <ele>446</ele>
        <time>2022-05-02T10:38:10Z</time>
      </trkpt>
      <trkpt lat="46.2808" lon="2.37625">
        <ele>442</ele>
        <time>2022-05-02T10:38:35Z</time>
      </trkpt>
      <trkpt lat="46.28085" lon="2.37679">
        <ele>442</ele>
        <time>2022-05-02T10:38:42Z</time>
      </trkpt>
      <trkpt lat="46.28094" lon="2.37726">
        <ele>441</ele>
        <time>2022-05-02T10:38:48Z</time>
      </trkpt>
      <trkpt lat="46.28105" lon="2.37769">
        <ele>441</ele>
        <time>2022-05-02T10:38:54Z</time>
      </trkpt>
      <trkpt lat="46.28133" lon="2.37851">
        <ele>440</ele>
        <time>2022-05-02T10:39:05Z</time>
      </trkpt>
      <trkpt lat="46.28219" lon="2.38018">
        <ele>438</ele>
        <time>2022-05-02T10:39:30Z</time>
      </trkpt>
      <trkpt lat="46.28245" lon="2.38077">
        <ele>438</ele>
        <time>2022-05-02T10:39:39Z</time>
      </trkpt>
      <trkpt lat="46.28259" lon="2.38116">
        <ele>438</ele>
        <time>2022-05-02T10:39:45Z</time>
      </trkpt>
      <trkpt lat="46.28282" lon="2.3822">
        <ele>436</ele>
        <time>2022-05-02T10:39:58Z</time>
      </trkpt>
      <trkpt lat="46.28288" lon="2.38258">
        <ele>436</ele>
        <time>2022-05-02T10:40:03Z</time>
      </trkpt>
      <trkpt lat="46.28289" lon="2.38304">
        <ele>436</ele>
        <time>2022-05-02T10:40:08Z</time>
      </trkpt>
      <trkpt lat="46.28282" lon="2.38376">
        <ele>436</ele>
        <time>2022-05-02T10:40:17Z</time>
      </trkpt>
      <trkpt lat="46.28265" lon="2.38468">
        <ele>435</ele>
        <time>2022-05-02T10:40:29Z</time>
      </trkpt>
      <trkpt lat="46.28236" lon="2.38595">
        <ele>434</ele>
        <time>2022-05-02T10:40:45Z</time>
      </trkpt>
      <trkpt lat="46.28225" lon="2.38673">
        <ele>433</ele>
        <time>2022-05-02T10:40:55Z</time>
      </trkpt>
      <trkpt lat="46.28224" lon="2.38754">
        <ele>435</ele>
        <time>2022-05-02T10:41:05Z</time>
      </trkpt>
      <trkpt lat="46.2823" lon="2.3882">
        <ele>435</ele>
        <time>2022-05-02T10:41:13Z</time>
      </trkpt>
      <trkpt lat="46.28239" lon="2.38866">
        <ele>436</ele>
        <time>2022-05-02T10:41:19Z</time>
      </trkpt>
      <trkpt lat="46.28252" lon="2.38919">
        <ele>437</ele>
        <time>2022-05-02T10:41:26Z</time>
      </trkpt>
      <trkpt lat="46.28303" lon="2.39079">
        <ele>439</ele>
        <time>2022-05-02T10:41:48Z</time>
      </trkpt>
      <trkpt lat="46.28303" lon="2.39116">
        <ele>440</ele>
        <time>2022-05-02T10:41:52Z</time>
      </trkpt>
      <trkpt lat="46.2831" lon="2.39125">
        <ele>440</ele>
        <time>2022-05-02T10:41:54Z</time>
      </trkpt>
      <trkpt lat="46.28315" lon="2.39126">
        <ele>440</ele>
        <time>2022-05-02T10:41:55Z</time>
      </trkpt>
      <trkpt lat="46.28326" lon="2.39137">
        <ele>440</ele>
        <time>2022-05-02T10:41:57Z</time>
      </trkpt>
      <trkpt lat="46.28349" lon="2.39177">
        <ele>440</ele>
        <time>2022-05-02T10:42:04Z</time>
      </trkpt>
      <trkpt lat="46.28385" lon="2.39249">
        <ele>440</ele>
        <time>2022-05-02T10:42:15Z</time>
      </trkpt>
      <trkpt lat="46.28483" lon="2.39455">
        <ele>436</ele>
        <time>2022-05-02T10:42:45Z</time>
      </trkpt>
      <trkpt lat="46.28537" lon="2.39573">
        <ele>437</ele>
        <time>2022-05-02T10:43:03Z</time>
      </trkpt>
      <trkpt lat="46.28554" lon="2.39625">
        <ele>440</ele>
        <time>2022-05-02T10:43:10Z</time>
      </trkpt>
      <trkpt lat="46.2857" lon="2.39684">
        <ele>442</ele>
        <time>2022-05-02T10:43:18Z</time>
      </trkpt>
      <trkpt lat="46.28584" lon="2.39767">
        <ele>444</ele>
        <time>2022-05-02T10:43:28Z</time>
      </trkpt>
      <trkpt lat="46.28608" lon="2.39933">
        <ele>448</ele>
        <time>2022-05-02T10:43:49Z</time>
      </trkpt>
      <trkpt lat="46.28616" lon="2.40011">
        <ele>452</ele>
        <time>2022-05-02T10:43:59Z</time>
      </trkpt>
      <trkpt lat="46.28615" lon="2.40069">
        <ele>455</ele>
        <time>2022-05-02T10:44:06Z</time>
      </trkpt>
      <trkpt lat="46.2861" lon="2.40117">
        <ele>457</ele>
        <time>2022-05-02T10:44:12Z</time>
      </trkpt>
      <trkpt lat="46.2859" lon="2.40252">
        <ele>461</ele>
        <time>2022-05-02T10:44:29Z</time>
      </trkpt>
      <trkpt lat="46.2859" lon="2.40304">
        <ele>460</ele>
        <time>2022-05-02T10:44:35Z</time>
      </trkpt>
      <trkpt lat="46.28594" lon="2.40353">
        <ele>460</ele>
        <time>2022-05-02T10:44:41Z</time>
      </trkpt>
      <trkpt lat="46.28605" lon="2.40395">
        <ele>460</ele>
        <time>2022-05-02T10:44:47Z</time>
      </trkpt>
      <trkpt lat="46.28631" lon="2.40456">
        <ele>461</ele>
        <time>2022-05-02T10:44:56Z</time>
      </trkpt>
      <trkpt lat="46.28703" lon="2.40611">
        <ele>463</ele>
        <time>2022-05-02T10:45:19Z</time>
      </trkpt>
      <trkpt lat="46.28822" lon="2.40803">
        <ele>465</ele>
        <time>2022-05-02T10:45:50Z</time>
      </trkpt>
      <trkpt lat="46.289" lon="2.40923">
        <ele>463</ele>
        <time>2022-05-02T10:46:11Z</time>
      </trkpt>
      <trkpt lat="46.29141" lon="2.41317">
        <ele>468</ele>
        <time>2022-05-02T10:47:15Z</time>
      </trkpt>
      <trkpt lat="46.29168" lon="2.41357">
        <ele>469</ele>
        <time>2022-05-02T10:47:22Z</time>
      </trkpt>
      <trkpt lat="46.29337" lon="2.4163">
        <ele>473</ele>
        <time>2022-05-02T10:48:07Z</time>
      </trkpt>
      <trkpt lat="46.2938" lon="2.41697">
        <ele>472</ele>
        <time>2022-05-02T10:48:18Z</time>
      </trkpt>
      <trkpt lat="46.2957" lon="2.42006">
        <ele>473</ele>
        <time>2022-05-02T10:49:09Z</time>
      </trkpt>
      <trkpt lat="46.29957" lon="2.42625">
        <ele>486</ele>
        <time>2022-05-02T10:50:52Z</time>
      </trkpt>
      <trkpt lat="46.30228" lon="2.43053">
        <ele>496</ele>
        <time>2022-05-02T10:52:03Z</time>
      </trkpt>
      <trkpt lat="46.3025" lon="2.43092">
        <ele>496</ele>
        <time>2022-05-02T10:52:09Z</time>
      </trkpt>
      <trkpt lat="46.30266" lon="2.43132">
        <ele>496</ele>
        <time>2022-05-02T10:52:15Z</time>
      </trkpt>
      <trkpt lat="46.30284" lon="2.43204">
        <ele>496</ele>
        <time>2022-05-02T10:52:25Z</time>
      </trkpt>
      <trkpt lat="46.30295" lon="2.43234">
        <ele>496</ele>
        <time>2022-05-02T10:52:29Z</time>
      </trkpt>
      <trkpt lat="46.30391" lon="2.43447">
        <ele>490</ele>
        <time>2022-05-02T10:53:00Z</time>
      </trkpt>
      <trkpt lat="46.3046" lon="2.43606">
        <ele>485</ele>
        <time>2022-05-02T10:53:23Z</time>
      </trkpt>
      <trkpt lat="46.3053" lon="2.43814">
        <ele>482</ele>
        <time>2022-05-02T10:53:52Z</time>
      </trkpt>
      <trkpt lat="46.30551" lon="2.4388">
        <ele>479</ele>
        <time>2022-05-02T10:54:00Z</time>
      </trkpt>
      <trkpt lat="46.30723" lon="2.44472">
        <ele>454</ele>
        <time>2022-05-02T10:55:19Z</time>
      </trkpt>
      <trkpt lat="46.30742" lon="2.44545">
        <ele>451</ele>
        <time>2022-05-02T10:55:29Z</time>
      </trkpt>
      <trkpt lat="46.30746" lon="2.44575">
        <ele>449</ele>
        <time>2022-05-02T10:55:33Z</time>
      </trkpt>
      <trkpt lat="46.30746" lon="2.44595">
        <ele>449</ele>
        <time>2022-05-02T10:55:35Z</time>
      </trkpt>
      <trkpt lat="46.30744" lon="2.44601">
        <ele>448</ele>
        <time>2022-05-02T10:55:36Z</time>
      </trkpt>
      <trkpt lat="46.30742" lon="2.44615">
        <ele>448</ele>
        <time>2022-05-02T10:55:38Z</time>
      </trkpt>
      <trkpt lat="46.30743" lon="2.44623">
        <ele>448</ele>
        <time>2022-05-02T10:55:39Z</time>
      </trkpt>
      <trkpt lat="46.30751" lon="2.44636">
        <ele>448</ele>
        <time>2022-05-02T10:55:41Z</time>
      </trkpt>
      <trkpt lat="46.30761" lon="2.44641">
        <ele>448</ele>
        <time>2022-05-02T10:55:43Z</time>
      </trkpt>
      <trkpt lat="46.30772" lon="2.44637">
        <ele>448</ele>
        <time>2022-05-02T10:55:45Z</time>
      </trkpt>
      <trkpt lat="46.30776" lon="2.44632">
        <ele>448</ele>
        <time>2022-05-02T10:55:46Z</time>
      </trkpt>
      <trkpt lat="46.30778" lon="2.44627">
        <ele>448</ele>
        <time>2022-05-02T10:55:46Z</time>
      </trkpt>
      <trkpt lat="46.30781" lon="2.44614">
        <ele>448</ele>
        <time>2022-05-02T10:55:48Z</time>
      </trkpt>
      <trkpt lat="46.30803" lon="2.44587">
        <ele>448</ele>
        <time>2022-05-02T10:55:53Z</time>
      </trkpt>
      <trkpt lat="46.30824" lon="2.44578">
        <ele>448</ele>
        <time>2022-05-02T10:55:57Z</time>
      </trkpt>
      <trkpt lat="46.30844" lon="2.44576">
        <ele>448</ele>
        <time>2022-05-02T10:56:01Z</time>
      </trkpt>
      <trkpt lat="46.30851" lon="2.44576">
        <ele>448</ele>
        <time>2022-05-02T10:56:02Z</time>
      </trkpt>
      <trkpt lat="46.30865" lon="2.44581">
        <ele>447</ele>
        <time>2022-05-02T10:56:05Z</time>
      </trkpt>
      <trkpt lat="46.30884" lon="2.44592">
        <ele>447</ele>
        <time>2022-05-02T10:56:08Z</time>
      </trkpt>
      <trkpt lat="46.31239" lon="2.44879">
        <ele>445</ele>
        <time>2022-05-02T10:57:21Z</time>
      </trkpt>
      <trkpt lat="46.31264" lon="2.44894">
        <ele>445</ele>
        <time>2022-05-02T10:57:25Z</time>
      </trkpt>
      <trkpt lat="46.31292" lon="2.44899">
        <ele>444</ele>
        <time>2022-05-02T10:57:30Z</time>
      </trkpt>
      <trkpt lat="46.31311" lon="2.44898">
        <ele>443</ele>
        <time>2022-05-02T10:57:34Z</time>
      </trkpt>
      <trkpt lat="46.32853" lon="2.44548">
        <ele>416</ele>
        <time>2022-05-02T11:02:11Z</time>
      </trkpt>
      <trkpt lat="46.33611" lon="2.44378">
        <ele>428</ele>
        <time>2022-05-02T11:04:28Z</time>
      </trkpt>
      <trkpt lat="46.33652" lon="2.4437">
        <ele>431</ele>
        <time>2022-05-02T11:04:35Z</time>
      </trkpt>
      <trkpt lat="46.3368" lon="2.44368">
        <ele>431</ele>
        <time>2022-05-02T11:04:40Z</time>
      </trkpt>
      <trkpt lat="46.33705" lon="2.44369">
        <ele>430</ele>
        <time>2022-05-02T11:04:45Z</time>
      </trkpt>
      <trkpt lat="46.33728" lon="2.44376">
        <ele>428</ele>
        <time>2022-05-02T11:04:49Z</time>
      </trkpt>
      <trkpt lat="46.33749" lon="2.44387">
        <ele>427</ele>
        <time>2022-05-02T11:04:53Z</time>
      </trkpt>
      <trkpt lat="46.33985" lon="2.44545">
        <ele>419</ele>
        <time>2022-05-02T11:05:39Z</time>
      </trkpt>
      <trkpt lat="46.34004" lon="2.44555">
        <ele>418</ele>
        <time>2022-05-02T11:05:43Z</time>
      </trkpt>
      <trkpt lat="46.34023" lon="2.4456">
        <ele>417</ele>
        <time>2022-05-02T11:05:46Z</time>
      </trkpt>
      <trkpt lat="46.34213" lon="2.44566">
        <ele>408</ele>
        <time>2022-05-02T11:06:20Z</time>
      </trkpt>
      <trkpt lat="46.34247" lon="2.44572">
        <ele>406</ele>
        <time>2022-05-02T11:06:26Z</time>
      </trkpt>
      <trkpt lat="46.34366" lon="2.44627">
        <ele>399</ele>
        <time>2022-05-02T11:06:48Z</time>
      </trkpt>
      <trkpt lat="46.34386" lon="2.44643">
        <ele>397</ele>
        <time>2022-05-02T11:06:52Z</time>
      </trkpt>
      <trkpt lat="46.34571" lon="2.44903">
        <ele>385</ele>
        <time>2022-05-02T11:07:38Z</time>
      </trkpt>
      <trkpt lat="46.34855" lon="2.45126">
        <ele>379</ele>
        <time>2022-05-02T11:08:36Z</time>
      </trkpt>
      <trkpt lat="46.34884" lon="2.45153">
        <ele>379</ele>
        <time>2022-05-02T11:08:42Z</time>
      </trkpt>
      <trkpt lat="46.34981" lon="2.45252">
        <ele>377</ele>
        <time>2022-05-02T11:09:03Z</time>
      </trkpt>
      <trkpt lat="46.34994" lon="2.45271">
        <ele>377</ele>
        <time>2022-05-02T11:09:06Z</time>
      </trkpt>
      <trkpt lat="46.35004" lon="2.45289">
        <ele>377</ele>
        <time>2022-05-02T11:09:09Z</time>
      </trkpt>
      <trkpt lat="46.35027" lon="2.45351">
        <ele>377</ele>
        <time>2022-05-02T11:09:18Z</time>
      </trkpt>
      <trkpt lat="46.35046" lon="2.45384">
        <ele>376</ele>
        <time>2022-05-02T11:09:23Z</time>
      </trkpt>
      <trkpt lat="46.35129" lon="2.455">
        <ele>374</ele>
        <time>2022-05-02T11:09:44Z</time>
      </trkpt>
      <trkpt lat="46.35149" lon="2.45525">
        <ele>373</ele>
        <time>2022-05-02T11:09:48Z</time>
      </trkpt>
      <trkpt lat="46.35257" lon="2.45623">
        <ele>369</ele>
        <time>2022-05-02T11:10:11Z</time>
      </trkpt>
      <trkpt lat="46.35343" lon="2.45706">
        <ele>369</ele>
        <time>2022-05-02T11:10:29Z</time>
      </trkpt>
      <trkpt lat="46.35443" lon="2.45813">
        <ele>370</ele>
        <time>2022-05-02T11:10:51Z</time>
      </trkpt>
      <trkpt lat="46.35587" lon="2.46003">
        <ele>370</ele>
        <time>2022-05-02T11:11:26Z</time>
      </trkpt>
      <trkpt lat="46.35632" lon="2.46066">
        <ele>370</ele>
        <time>2022-05-02T11:11:37Z</time>
      </trkpt>
      <trkpt lat="46.35726" lon="2.46211">
        <ele>371</ele>
        <time>2022-05-02T11:12:02Z</time>
      </trkpt>
      <trkpt lat="46.3577" lon="2.46273">
        <ele>371</ele>
        <time>2022-05-02T11:12:13Z</time>
      </trkpt>
      <trkpt lat="46.35945" lon="2.4651">
        <ele>371</ele>
        <time>2022-05-02T11:12:55Z</time>
      </trkpt>
      <trkpt lat="46.3599" lon="2.46574">
        <ele>371</ele>
        <time>2022-05-02T11:13:06Z</time>
      </trkpt>
      <trkpt lat="46.36303" lon="2.4706">
        <ele>353</ele>
        <time>2022-05-02T11:14:28Z</time>
      </trkpt>
      <trkpt lat="46.3634" lon="2.47114">
        <ele>350</ele>
        <time>2022-05-02T11:14:37Z</time>
      </trkpt>
      <trkpt lat="46.36366" lon="2.47146">
        <ele>348</ele>
        <time>2022-05-02T11:14:43Z</time>
      </trkpt>
      <trkpt lat="46.36422" lon="2.47206">
        <ele>346</ele>
        <time>2022-05-02T11:14:56Z</time>
      </trkpt>
      <trkpt lat="46.36618" lon="2.4739">
        <ele>343</ele>
        <time>2022-05-02T11:15:37Z</time>
      </trkpt>
      <trkpt lat="46.36677" lon="2.47432">
        <ele>343</ele>
        <time>2022-05-02T11:15:49Z</time>
      </trkpt>
      <trkpt lat="46.36731" lon="2.47474">
        <ele>340</ele>
        <time>2022-05-02T11:16:00Z</time>
      </trkpt>
      <trkpt lat="46.36753" lon="2.47494">
        <ele>339</ele>
        <time>2022-05-02T11:16:05Z</time>
      </trkpt>
      <trkpt lat="46.36953" lon="2.47702">
        <ele>336</ele>
        <time>2022-05-02T11:16:48Z</time>
      </trkpt>
      <trkpt lat="46.37045" lon="2.47818">
        <ele>335</ele>
        <time>2022-05-02T11:17:10Z</time>
      </trkpt>
      <trkpt lat="46.37055" lon="2.47826">
        <ele>335</ele>
        <time>2022-05-02T11:17:12Z</time>
      </trkpt>
      <trkpt lat="46.37069" lon="2.47833">
        <ele>335</ele>
        <time>2022-05-02T11:17:15Z</time>
      </trkpt>
      <trkpt lat="46.37081" lon="2.47833">
        <ele>335</ele>
        <time>2022-05-02T11:17:17Z</time>
      </trkpt>
      <trkpt lat="46.37114" lon="2.47829">
        <ele>334</ele>
        <time>2022-05-02T11:17:23Z</time>
      </trkpt>
      <trkpt lat="46.37124" lon="2.4783">
        <ele>334</ele>
        <time>2022-05-02T11:17:25Z</time>
      </trkpt>
      <trkpt lat="46.3713" lon="2.47834">
        <ele>334</ele>
        <time>2022-05-02T11:17:26Z</time>
      </trkpt>
      <trkpt lat="46.37132" lon="2.47838">
        <ele>334</ele>
        <time>2022-05-02T11:17:26Z</time>
      </trkpt>
      <trkpt lat="46.3719" lon="2.4779">
        <ele>332</ele>
        <time>2022-05-02T11:17:38Z</time>
      </trkpt>
      <trkpt lat="46.37255" lon="2.47992">
        <ele>330</ele>
        <time>2022-05-02T11:18:06Z</time>
      </trkpt>
      <trkpt lat="46.37278" lon="2.48075">
        <ele>329</ele>
        <time>2022-05-02T11:18:17Z</time>
      </trkpt>
      <trkpt lat="46.37294" lon="2.48159">
        <ele>328</ele>
        <time>2022-05-02T11:18:27Z</time>
      </trkpt>
      <trkpt lat="46.37303" lon="2.48226">
        <ele>327</ele>
        <time>2022-05-02T11:18:36Z</time>
      </trkpt>
      <trkpt lat="46.37309" lon="2.48313">
        <ele>326</ele>
        <time>2022-05-02T11:18:46Z</time>
      </trkpt>
      <trkpt lat="46.37311" lon="2.48403">
        <ele>326</ele>
        <time>2022-05-02T11:18:57Z</time>
      </trkpt>
      <trkpt lat="46.37307" lon="2.48504">
        <ele>326</ele>
        <time>2022-05-02T11:19:10Z</time>
      </trkpt>
      <trkpt lat="46.37293" lon="2.48619">
        <ele>326</ele>
        <time>2022-05-02T11:19:24Z</time>
      </trkpt>
      <trkpt lat="46.37287" lon="2.48783">
        <ele>324</ele>
        <time>2022-05-02T11:19:44Z</time>
      </trkpt>
      <trkpt lat="46.37291" lon="2.48822">
        <ele>323</ele>
        <time>2022-05-02T11:19:49Z</time>
      </trkpt>
      <trkpt lat="46.37306" lon="2.48875">
        <ele>322</ele>
        <time>2022-05-02T11:19:56Z</time>
      </trkpt>
      <trkpt lat="46.37342" lon="2.4899">
        <ele>319</ele>
        <time>2022-05-02T11:20:12Z</time>
      </trkpt>
      <trkpt lat="46.3736" lon="2.49035">
        <ele>317</ele>
        <time>2022-05-02T11:20:18Z</time>
      </trkpt>
      <trkpt lat="46.37411" lon="2.49152">
        <ele>312</ele>
        <time>2022-05-02T11:20:35Z</time>
      </trkpt>
      <trkpt lat="46.37424" lon="2.49184">
        <ele>311</ele>
        <time>2022-05-02T11:20:40Z</time>
      </trkpt>
      <trkpt lat="46.37441" lon="2.49242">
        <ele>310</ele>
        <time>2022-05-02T11:20:47Z</time>
      </trkpt>
      <trkpt lat="46.375" lon="2.49462">
        <ele>306</ele>
        <time>2022-05-02T11:21:16Z</time>
      </trkpt>
      <trkpt lat="46.37522" lon="2.49538">
        <ele>304</ele>
        <time>2022-05-02T11:21:27Z</time>
      </trkpt>
      <trkpt lat="46.37566" lon="2.49662">
        <ele>300</ele>
        <time>2022-05-02T11:21:44Z</time>
      </trkpt>
      <trkpt lat="46.37578" lon="2.497">
        <ele>299</ele>
        <time>2022-05-02T11:21:49Z</time>
      </trkpt>
      <trkpt lat="46.37586" lon="2.49733">
        <ele>298</ele>
        <time>2022-05-02T11:21:53Z</time>
      </trkpt>
      <trkpt lat="46.37653" lon="2.50103">
        <ele>284</ele>
        <time>2022-05-02T11:22:40Z</time>
      </trkpt>
      <trkpt lat="46.37666" lon="2.50137">
        <ele>283</ele>
        <time>2022-05-02T11:22:45Z</time>
      </trkpt>
      <trkpt lat="46.37698" lon="2.50211">
        <ele>280</ele>
        <time>2022-05-02T11:22:56Z</time>
      </trkpt>
      <trkpt lat="46.3773" lon="2.50287">
        <ele>276</ele>
        <time>2022-05-02T11:23:06Z</time>
      </trkpt>
      <trkpt lat="46.37771" lon="2.50408">
        <ele>271</ele>
        <time>2022-05-02T11:23:23Z</time>
      </trkpt>
      <trkpt lat="46.37797" lon="2.50462">
        <ele>269</ele>
        <time>2022-05-02T11:23:31Z</time>
      </trkpt>
      <trkpt lat="46.37799" lon="2.50483">
        <ele>268</ele>
        <time>2022-05-02T11:23:34Z</time>
      </trkpt>
      <trkpt lat="46.37793" lon="2.50495">
        <ele>268</ele>
        <time>2022-05-02T11:23:36Z</time>
      </trkpt>
      <trkpt lat="46.37741" lon="2.50529">
        <ele>267</ele>
        <time>2022-05-02T11:23:46Z</time>
      </trkpt>
      <trkpt lat="46.3773" lon="2.50539">
        <ele>266</ele>
        <time>2022-05-02T11:23:48Z</time>
      </trkpt>
      <trkpt lat="46.37724" lon="2.5055">
        <ele>266</ele>
        <time>2022-05-02T11:23:50Z</time>
      </trkpt>
      <trkpt lat="46.37713" lon="2.50612">
        <ele>263</ele>
        <time>2022-05-02T11:23:58Z</time>
      </trkpt>
      <trkpt lat="46.37701" lon="2.5066">
        <ele>261</ele>
        <time>2022-05-02T11:24:04Z</time>
      </trkpt>
      <trkpt lat="46.37685" lon="2.50695">
        <ele>260</ele>
        <time>2022-05-02T11:24:09Z</time>
      </trkpt>
      <trkpt lat="46.37679" lon="2.50717">
        <ele>259</ele>
        <time>2022-05-02T11:24:12Z</time>
      </trkpt>
      <trkpt lat="46.37672" lon="2.50794">
        <ele>258</ele>
        <time>2022-05-02T11:24:21Z</time>
      </trkpt>
      <trkpt lat="46.37665" lon="2.50828">
        <ele>258</ele>
        <time>2022-05-02T11:24:26Z</time>
      </trkpt>
      <trkpt lat="46.37604" lon="2.50998">
        <ele>250</ele>
        <time>2022-05-02T11:24:49Z</time>
      </trkpt>
      <trkpt lat="46.37599" lon="2.51019">
        <ele>249</ele>
        <time>2022-05-02T11:24:52Z</time>
      </trkpt>
      <trkpt lat="46.37601" lon="2.5104">
        <ele>249</ele>
        <time>2022-05-02T11:24:55Z</time>
      </trkpt>
      <trkpt lat="46.37607" lon="2.51063">
        <ele>248</ele>
        <time>2022-05-02T11:24:58Z</time>
      </trkpt>
      <trkpt lat="46.37614" lon="2.51081">
        <ele>247</ele>
        <time>2022-05-02T11:25:00Z</time>
      </trkpt>
      <trkpt lat="46.37616" lon="2.51097">
        <ele>247</ele>
        <time>2022-05-02T11:25:02Z</time>
      </trkpt>
      <trkpt lat="46.37615" lon="2.51114">
        <ele>248</ele>
        <time>2022-05-02T11:25:04Z</time>
      </trkpt>
      <trkpt lat="46.37604" lon="2.51148">
        <ele>249</ele>
        <time>2022-05-02T11:25:09Z</time>
      </trkpt>
      <trkpt lat="46.37601" lon="2.51167">
        <ele>250</ele>
        <time>2022-05-02T11:25:11Z</time>
      </trkpt>
      <trkpt lat="46.37602" lon="2.5119">
        <ele>250</ele>
        <time>2022-05-02T11:25:14Z</time>
      </trkpt>
      <trkpt lat="46.37612" lon="2.51232">
        <ele>248</ele>
        <time>2022-05-02T11:25:20Z</time>
      </trkpt>
      <trkpt lat="46.37612" lon="2.51257">
        <ele>248</ele>
        <time>2022-05-02T11:25:23Z</time>
      </trkpt>
      <trkpt lat="46.37596" lon="2.51314">
        <ele>248</ele>
        <time>2022-05-02T11:25:30Z</time>
      </trkpt>
      <trkpt lat="46.37595" lon="2.51337">
        <ele>248</ele>
        <time>2022-05-02T11:25:33Z</time>
      </trkpt>
      <trkpt lat="46.37598" lon="2.51358">
        <ele>248</ele>
        <time>2022-05-02T11:25:36Z</time>
      </trkpt>
      <trkpt lat="46.37633" lon="2.5152">
        <ele>243</ele>
        <time>2022-05-02T11:25:56Z</time>
      </trkpt>
      <trkpt lat="46.37607" lon="2.51544">
        <ele>243</ele>
        <time>2022-05-02T11:26:02Z</time>
      </trkpt>
      <trkpt lat="46.37592" lon="2.51554">
        <ele>243</ele>
        <time>2022-05-02T11:26:05Z</time>
      </trkpt>
      <trkpt lat="46.37514" lon="2.51579">
        <ele>245</ele>
        <time>2022-05-02T11:26:19Z</time>
      </trkpt>
      <trkpt lat="46.37337" lon="2.51647">
        <ele>253</ele>
        <time>2022-05-02T11:26:52Z</time>
      </trkpt>
      <trkpt lat="46.37218" lon="2.51702">
        <ele>255</ele>
        <time>2022-05-02T11:27:14Z</time>
      </trkpt>
      <trkpt lat="46.37154" lon="2.51728">
        <ele>254</ele>
        <time>2022-05-02T11:27:26Z</time>
      </trkpt>
      <trkpt lat="46.37105" lon="2.51752">
        <ele>254</ele>
        <time>2022-05-02T11:27:35Z</time>
      </trkpt>
      <trkpt lat="46.37071" lon="2.51775">
        <ele>252</ele>
        <time>2022-05-02T11:27:42Z</time>
      </trkpt>
      <trkpt lat="46.36974" lon="2.51863">
        <ele>244</ele>
        <time>2022-05-02T11:28:02Z</time>
      </trkpt>
      <trkpt lat="46.36874" lon="2.51942">
        <ele>235</ele>
        <time>2022-05-02T11:28:22Z</time>
      </trkpt>
      <trkpt lat="46.36863" lon="2.51952">
        <ele>234</ele>
        <time>2022-05-02T11:28:25Z</time>
      </trkpt>
      <trkpt lat="46.36856" lon="2.51963">
        <ele>234</ele>
        <time>2022-05-02T11:28:26Z</time>
      </trkpt>
      <trkpt lat="46.36849" lon="2.51967">
        <ele>233</ele>
        <time>2022-05-02T11:28:28Z</time>
      </trkpt>
      <trkpt lat="46.36849" lon="2.51976">
        <ele>233</ele>
        <time>2022-05-02T11:28:29Z</time>
      </trkpt>
      <trkpt lat="46.36844" lon="2.51993">
        <ele>232</ele>
        <time>2022-05-02T11:28:31Z</time>
      </trkpt>
      <trkpt lat="46.36825" lon="2.52084">
        <ele>229</ele>
        <time>2022-05-02T11:28:43Z</time>
      </trkpt>
      <trkpt lat="46.36806" lon="2.52119">
        <ele>228</ele>
        <time>2022-05-02T11:28:48Z</time>
      </trkpt>
      <trkpt lat="46.368" lon="2.52133">
        <ele>228</ele>
        <time>2022-05-02T11:28:50Z</time>
      </trkpt>
      <trkpt lat="46.36782" lon="2.52169">
        <ele>228</ele>
        <time>2022-05-02T11:28:56Z</time>
      </trkpt>
      <trkpt lat="46.36743" lon="2.52276">
        <ele>231</ele>
        <time>2022-05-02T11:29:11Z</time>
      </trkpt>
      <trkpt lat="46.36731" lon="2.52317">
        <ele>233</ele>
        <time>2022-05-02T11:29:16Z</time>
      </trkpt>
      <trkpt lat="46.3672" lon="2.52378">
        <ele>234</ele>
        <time>2022-05-02T11:29:24Z</time>
      </trkpt>
      <trkpt lat="46.36708" lon="2.52406">
        <ele>235</ele>
        <time>2022-05-02T11:29:28Z</time>
      </trkpt>
      <trkpt lat="46.36634" lon="2.52538">
        <ele>238</ele>
        <time>2022-05-02T11:29:49Z</time>
      </trkpt>
      <trkpt lat="46.36572" lon="2.52641">
        <ele>234</ele>
        <time>2022-05-02T11:30:05Z</time>
      </trkpt>
      <trkpt lat="46.36546" lon="2.52674">
        <ele>234</ele>
        <time>2022-05-02T11:30:12Z</time>
      </trkpt>
      <trkpt lat="46.36514" lon="2.52699">
        <ele>234</ele>
        <time>2022-05-02T11:30:18Z</time>
      </trkpt>
      <trkpt lat="46.36499" lon="2.52721">
        <ele>234</ele>
        <time>2022-05-02T11:30:22Z</time>
      </trkpt>
      <trkpt lat="46.36486" lon="2.52749">
        <ele>234</ele>
        <time>2022-05-02T11:30:26Z</time>
      </trkpt>
      <trkpt lat="46.3648" lon="2.52771">
        <ele>234</ele>
        <time>2022-05-02T11:30:29Z</time>
      </trkpt>
      <trkpt lat="46.36477" lon="2.52795">
        <ele>233</ele>
        <time>2022-05-02T11:30:32Z</time>
      </trkpt>
      <trkpt lat="46.36478" lon="2.52822">
        <ele>233</ele>
        <time>2022-05-02T11:30:35Z</time>
      </trkpt>
      <trkpt lat="46.36487" lon="2.52875">
        <ele>233</ele>
        <time>2022-05-02T11:30:42Z</time>
      </trkpt>
      <trkpt lat="46.36496" lon="2.52955">
        <ele>233</ele>
        <time>2022-05-02T11:30:52Z</time>
      </trkpt>
      <trkpt lat="46.36495" lon="2.52989">
        <ele>233</ele>
        <time>2022-05-02T11:30:56Z</time>
      </trkpt>
      <trkpt lat="46.36485" lon="2.53037">
        <ele>232</ele>
        <time>2022-05-02T11:31:02Z</time>
      </trkpt>
      <trkpt lat="46.36473" lon="2.53069">
        <ele>233</ele>
        <time>2022-05-02T11:31:07Z</time>
      </trkpt>
      <trkpt lat="46.36378" lon="2.53253">
        <ele>243</ele>
        <time>2022-05-02T11:31:35Z</time>
      </trkpt>
      <trkpt lat="46.36298" lon="2.5343">
        <ele>240</ele>
        <time>2022-05-02T11:32:01Z</time>
      </trkpt>
      <trkpt lat="46.36255" lon="2.53516">
        <ele>239</ele>
        <time>2022-05-02T11:32:14Z</time>
      </trkpt>
      <trkpt lat="46.36248" lon="2.53541">
        <ele>238</ele>
        <time>2022-05-02T11:32:17Z</time>
      </trkpt>
      <trkpt lat="46.3625" lon="2.53568">
        <ele>237</ele>
        <time>2022-05-02T11:32:21Z</time>
      </trkpt>
      <trkpt lat="46.36252" lon="2.53586">
        <ele>237</ele>
        <time>2022-05-02T11:32:23Z</time>
      </trkpt>
      <trkpt lat="46.36253" lon="2.53619">
        <ele>237</ele>
        <time>2022-05-02T11:32:27Z</time>
      </trkpt>
      <trkpt lat="46.36249" lon="2.53659">
        <ele>237</ele>
        <time>2022-05-02T11:32:32Z</time>
      </trkpt>
      <trkpt lat="46.36239" lon="2.53695">
        <ele>237</ele>
        <time>2022-05-02T11:32:37Z</time>
      </trkpt>
      <trkpt lat="46.36303" lon="2.53736">
        <ele>236</ele>
        <time>2022-05-02T11:32:49Z</time>
      </trkpt>
      <trkpt lat="46.36322" lon="2.53743">
        <ele>236</ele>
        <time>2022-05-02T11:32:53Z</time>
      </trkpt>
      <trkpt lat="46.36322" lon="2.53743">
        <ele>236</ele>
        <time>2022-05-02T11:32:53Z</time>
      </trkpt>
      <trkpt lat="46.36381" lon="2.5374">
        <ele>235</ele>
        <time>2022-05-02T11:33:03Z</time>
      </trkpt>
      <trkpt lat="46.36398" lon="2.53747">
        <ele>235</ele>
        <time>2022-05-02T11:33:06Z</time>
      </trkpt>
      <trkpt lat="46.36409" lon="2.53757">
        <ele>234</ele>
        <time>2022-05-02T11:33:09Z</time>
      </trkpt>
      <trkpt lat="46.36453" lon="2.53818">
        <ele>234</ele>
        <time>2022-05-02T11:33:19Z</time>
      </trkpt>
      <trkpt lat="46.36468" lon="2.53832">
        <ele>235</ele>
        <time>2022-05-02T11:33:23Z</time>
      </trkpt>
      <trkpt lat="46.36468" lon="2.53848">
        <ele>235</ele>
        <time>2022-05-02T11:33:25Z</time>
      </trkpt>
      <trkpt lat="46.36486" lon="2.53922">
        <ele>234</ele>
        <time>2022-05-02T11:33:34Z</time>
      </trkpt>
      <trkpt lat="46.36517" lon="2.54074">
        <ele>233</ele>
        <time>2022-05-02T11:33:54Z</time>
      </trkpt>
      <trkpt lat="46.3652" lon="2.54097">
        <ele>232</ele>
        <time>2022-05-02T11:33:56Z</time>
      </trkpt>
      <trkpt lat="46.36522" lon="2.54177">
        <ele>230</ele>
        <time>2022-05-02T11:34:06Z</time>
      </trkpt>
      <trkpt lat="46.36525" lon="2.54198">
        <ele>230</ele>
        <time>2022-05-02T11:34:09Z</time>
      </trkpt>
      <trkpt lat="46.36559" lon="2.54361">
        <ele>227</ele>
        <time>2022-05-02T11:34:30Z</time>
      </trkpt>
      <trkpt lat="46.3658" lon="2.54409">
        <ele>226</ele>
        <time>2022-05-02T11:34:37Z</time>
      </trkpt>
      <trkpt lat="46.36597" lon="2.54443">
        <ele>225</ele>
        <time>2022-05-02T11:34:42Z</time>
      </trkpt>
      <trkpt lat="46.36624" lon="2.54481">
        <ele>224</ele>
        <time>2022-05-02T11:34:49Z</time>
      </trkpt>
      <trkpt lat="46.36663" lon="2.54525">
        <ele>224</ele>
        <time>2022-05-02T11:34:57Z</time>
      </trkpt>
      <trkpt lat="46.36808" lon="2.54669">
        <ele>223</ele>
        <time>2022-05-02T11:35:29Z</time>
      </trkpt>
      <trkpt lat="46.36818" lon="2.54682">
        <ele>223</ele>
        <time>2022-05-02T11:35:31Z</time>
      </trkpt>
      <trkpt lat="46.36833" lon="2.54722">
        <ele>224</ele>
        <time>2022-05-02T11:35:37Z</time>
      </trkpt>
      <trkpt lat="46.3686" lon="2.54796">
        <ele>223</ele>
        <time>2022-05-02T11:35:47Z</time>
      </trkpt>
      <trkpt lat="46.36912" lon="2.54895">
        <ele>222</ele>
        <time>2022-05-02T11:36:02Z</time>
      </trkpt>
      <trkpt lat="46.36936" lon="2.54938">
        <ele>220</ele>
        <time>2022-05-02T11:36:09Z</time>
      </trkpt>
      <trkpt lat="46.36967" lon="2.54978">
        <ele>219</ele>
        <time>2022-05-02T11:36:16Z</time>
      </trkpt>
      <trkpt lat="46.37003" lon="2.55018">
        <ele>219</ele>
        <time>2022-05-02T11:36:25Z</time>
      </trkpt>
      <trkpt lat="46.37095" lon="2.55109">
        <ele>219</ele>
        <time>2022-05-02T11:36:44Z</time>
      </trkpt>
      <trkpt lat="46.37189" lon="2.55209">
        <ele>217</ele>
        <time>2022-05-02T11:37:05Z</time>
      </trkpt>
      <trkpt lat="46.37234" lon="2.55258">
        <ele>216</ele>
        <time>2022-05-02T11:37:15Z</time>
      </trkpt>
      <trkpt lat="46.37302" lon="2.5534">
        <ele>214</ele>
        <time>2022-05-02T11:37:31Z</time>
      </trkpt>
      <trkpt lat="46.37312" lon="2.55355">
        <ele>214</ele>
        <time>2022-05-02T11:37:33Z</time>
      </trkpt>
      <trkpt lat="46.37326" lon="2.55387">
        <ele>214</ele>
        <time>2022-05-02T11:37:38Z</time>
      </trkpt>
      <trkpt lat="46.37353" lon="2.55502">
        <ele>214</ele>
        <time>2022-05-02T11:37:53Z</time>
      </trkpt>
      <trkpt lat="46.37439" lon="2.55876">
        <ele>212</ele>
        <time>2022-05-02T11:38:41Z</time>
      </trkpt>
      <trkpt lat="46.37451" lon="2.55908">
        <ele>210</ele>
        <time>2022-05-02T11:38:46Z</time>
      </trkpt>
      <trkpt lat="46.37489" lon="2.56001">
        <ele>209</ele>
        <time>2022-05-02T11:38:59Z</time>
      </trkpt>
      <trkpt lat="46.37524" lon="2.56075">
        <ele>210</ele>
        <time>2022-05-02T11:39:10Z</time>
      </trkpt>
      <trkpt lat="46.37528" lon="2.56088">
        <ele>210</ele>
        <time>2022-05-02T11:39:12Z</time>
      </trkpt>
      <trkpt lat="46.37534" lon="2.56128">
        <ele>210</ele>
        <time>2022-05-02T11:39:17Z</time>
      </trkpt>
      <trkpt lat="46.3754" lon="2.56207">
        <ele>209</ele>
        <time>2022-05-02T11:39:27Z</time>
      </trkpt>
      <trkpt lat="46.37547" lon="2.56242">
        <ele>209</ele>
        <time>2022-05-02T11:39:31Z</time>
      </trkpt>
      <trkpt lat="46.37554" lon="2.56256">
        <ele>209</ele>
        <time>2022-05-02T11:39:33Z</time>
      </trkpt>
      <trkpt lat="46.37583" lon="2.56295">
        <ele>209</ele>
        <time>2022-05-02T11:39:40Z</time>
      </trkpt>
      <trkpt lat="46.37644" lon="2.56363">
        <ele>208</ele>
        <time>2022-05-02T11:39:54Z</time>
      </trkpt>
      <trkpt lat="46.3766" lon="2.56395">
        <ele>209</ele>
        <time>2022-05-02T11:39:59Z</time>
      </trkpt>
      <trkpt lat="46.37703" lon="2.56442">
        <ele>208</ele>
        <time>2022-05-02T11:40:08Z</time>
      </trkpt>
      <trkpt lat="46.37703" lon="2.56467">
        <ele>208</ele>
        <time>2022-05-02T11:40:11Z</time>
      </trkpt>
      <trkpt lat="46.37697" lon="2.56486">
        <ele>209</ele>
        <time>2022-05-02T11:40:14Z</time>
      </trkpt>
      <trkpt lat="46.37637" lon="2.56563">
        <ele>214</ele>
        <time>2022-05-02T11:40:28Z</time>
      </trkpt>
      <trkpt lat="46.37531" lon="2.56679">
        <ele>220</ele>
        <time>2022-05-02T11:40:52Z</time>
      </trkpt>
      <trkpt lat="46.37368" lon="2.56846">
        <ele>224</ele>
        <time>2022-05-02T11:41:27Z</time>
      </trkpt>
      <trkpt lat="46.37196" lon="2.57027">
        <ele>226</ele>
        <time>2022-05-02T11:42:05Z</time>
      </trkpt>
      <trkpt lat="46.37165" lon="2.5706">
        <ele>225</ele>
        <time>2022-05-02T11:42:12Z</time>
      </trkpt>
      <trkpt lat="46.37031" lon="2.57199">
        <ele>227</ele>
        <time>2022-05-02T11:42:41Z</time>
      </trkpt>
      <trkpt lat="46.3702" lon="2.57206">
        <ele>227</ele>
        <time>2022-05-02T11:42:44Z</time>
      </trkpt>
      <trkpt lat="46.37003" lon="2.57223">
        <ele>227</ele>
        <time>2022-05-02T11:42:47Z</time>
      </trkpt>
      <trkpt lat="46.36994" lon="2.57225">
        <ele>227</ele>
        <time>2022-05-02T11:42:49Z</time>
      </trkpt>
      <trkpt lat="46.36987" lon="2.57224">
        <ele>227</ele>
        <time>2022-05-02T11:42:50Z</time>
      </trkpt>
      <trkpt lat="46.3698" lon="2.5723">
        <ele>227</ele>
        <time>2022-05-02T11:42:52Z</time>
      </trkpt>
      <trkpt lat="46.36977" lon="2.5724">
        <ele>227</ele>
        <time>2022-05-02T11:42:53Z</time>
      </trkpt>
      <trkpt lat="46.36977" lon="2.57248">
        <ele>227</ele>
        <time>2022-05-02T11:42:54Z</time>
      </trkpt>
      <trkpt lat="46.36971" lon="2.57259">
        <ele>227</ele>
        <time>2022-05-02T11:42:56Z</time>
      </trkpt>
      <trkpt lat="46.3696" lon="2.57269">
        <ele>227</ele>
        <time>2022-05-02T11:42:58Z</time>
      </trkpt>
      <trkpt lat="46.36952" lon="2.57283">
        <ele>228</ele>
        <time>2022-05-02T11:43:00Z</time>
      </trkpt>
      <trkpt lat="46.36744" lon="2.57499">
        <ele>226</ele>
        <time>2022-05-02T11:43:46Z</time>
      </trkpt>
      <trkpt lat="46.3674" lon="2.57494">
        <ele>226</ele>
        <time>2022-05-02T11:43:47Z</time>
      </trkpt>
      <trkpt lat="46.36735" lon="2.57495">
        <ele>226</ele>
        <time>2022-05-02T11:43:48Z</time>
      </trkpt>
      <trkpt lat="46.3673" lon="2.57503">
        <ele>226</ele>
        <time>2022-05-02T11:43:49Z</time>
      </trkpt>
      <trkpt lat="46.36731" lon="2.57513">
        <ele>226</ele>
        <time>2022-05-02T11:43:50Z</time>
      </trkpt>
      <trkpt lat="46.36735" lon="2.57517">
        <ele>226</ele>
        <time>2022-05-02T11:43:51Z</time>
      </trkpt>
      <trkpt lat="46.36743" lon="2.57516">
        <ele>226</ele>
        <time>2022-05-02T11:43:52Z</time>
      </trkpt>
      <trkpt lat="46.36746" lon="2.57507">
        <ele>226</ele>
        <time>2022-05-02T11:43:54Z</time>
      </trkpt>
    </trkseg>
  </trk>
</gpx>